<?xml version="1.0" encoding="UTF-8" standalone="no" ?><gpx xmlns="http://www.topografix.com/GPX/1/1" xmlns:gpxx="http://www.garmin.com/xmlschemas/WaypointExtension/v1" xmlns:gpxtrx="http://www.garmin.com/xmlschemas/GpxExtensions/v3" xmlns:gpxtpx="http://www.garmin.com/xmlschemas/TrackPointExtension/v1" creator="Oregon 450t" version="1.1" xmlns:xsi="http://www.w3.org/2001/XMLSchema-instance" xsi:schemaLocation="http://www.topografix.com/GPX/1/1 http://www.topografix.com/GPX/1/1/gpx.xsd http://www.garmin.com/xmlschemas/WaypointExtension/v1 http://www8.garmin.com/xmlschemas/WaypointExtensionv1.xsd http://www.garmin.com/xmlschemas/TrackPointExtension/v1 http://www.garmin.com/xmlschemas/TrackPointExtensionv1.xsd"><metadata><link href="http://www.garmin.com"><text>Garmin International</text></link><time>2012-03-16T15:03:42Z</time></metadata><trk><name>Day 15-MAR-12 05.01.07 PM</name><extensions><gpxtrx:TrackExtension><gpxtrx:DisplayColor>Black</gpxtrx:DisplayColor></gpxtrx:TrackExtension></extensions><trkseg><trkpt lat="41.577396" lon="2.010041"><ele>214.51</ele><time>2012-03-15T16:01:07Z</time></trkpt><trkpt lat="41.577385" lon="2.010009"><ele>218.84</ele><time>2012-03-15T16:01:11Z</time></trkpt><trkpt lat="41.577381" lon="2.010001"><ele>224.12</ele><time>2012-03-15T16:01:12Z</time></trkpt><trkpt lat="41.577389" lon="2.010009"><ele>229.41</ele><time>2012-03-15T16:01:14Z</time></trkpt><trkpt lat="41.577385" lon="2.010008"><ele>237.10</ele><time>2012-03-15T16:01:16Z</time></trkpt><trkpt lat="41.577381" lon="2.010018"><ele>239.99</ele><time>2012-03-15T16:01:17Z</time></trkpt><trkpt lat="41.577381" lon="2.010036"><ele>243.35</ele><time>2012-03-15T16:01:18Z</time></trkpt><trkpt lat="41.577374" lon="2.010051"><ele>247.68</ele><time>2012-03-15T16:01:19Z</time></trkpt></trkseg><trkseg><trkpt lat="41.577362" lon="2.010062"><ele>253.44</ele><time>2012-03-15T16:01:21Z</time></trkpt><trkpt lat="41.577362" lon="2.010071"><ele>256.81</ele><time>2012-03-15T16:01:22Z</time></trkpt><trkpt lat="41.577354" lon="2.010090"><ele>263.06</ele><time>2012-03-15T16:01:24Z</time></trkpt><trkpt lat="41.577354" lon="2.010098"><ele>268.83</ele><time>2012-03-15T16:01:26Z</time></trkpt><trkpt lat="41.577354" lon="2.010101"><ele>274.59</ele><time>2012-03-15T16:01:28Z</time></trkpt><trkpt lat="41.577354" lon="2.010097"><ele>280.36</ele><time>2012-03-15T16:01:30Z</time></trkpt><trkpt lat="41.577354" lon="2.010098"><ele>284.21</ele><time>2012-03-15T16:01:32Z</time></trkpt><trkpt lat="41.577351" lon="2.010102"><ele>288.05</ele><time>2012-03-15T16:01:33Z</time></trkpt><trkpt lat="41.577343" lon="2.010115"><ele>291.42</ele><time>2012-03-15T16:01:35Z</time></trkpt><trkpt lat="41.577335" lon="2.010132"><ele>295.74</ele><time>2012-03-15T16:01:37Z</time></trkpt><trkpt lat="41.577328" lon="2.010148"><ele>299.59</ele><time>2012-03-15T16:01:39Z</time></trkpt><trkpt lat="41.577324" lon="2.010153"><ele>302.95</ele><time>2012-03-15T16:01:41Z</time></trkpt><trkpt lat="41.577320" lon="2.010149"><ele>306.32</ele><time>2012-03-15T16:01:43Z</time></trkpt><trkpt lat="41.577320" lon="2.010142"><ele>310.64</ele><time>2012-03-15T16:01:46Z</time></trkpt><trkpt lat="41.577324" lon="2.010128"><ele>314.01</ele><time>2012-03-15T16:01:48Z</time></trkpt><trkpt lat="41.577328" lon="2.010116"><ele>314.97</ele><time>2012-03-15T16:01:49Z</time></trkpt><trkpt lat="41.577343" lon="2.010074"><ele>318.33</ele><time>2012-03-15T16:01:52Z</time></trkpt><trkpt lat="41.577358" lon="2.010019"><ele>317.37</ele><time>2012-03-15T16:01:54Z</time></trkpt><trkpt lat="41.577389" lon="2.009992"><ele>322.66</ele><time>2012-03-15T16:01:56Z</time></trkpt><trkpt lat="41.577404" lon="2.009991"><ele>325.54</ele><time>2012-03-15T16:01:57Z</time></trkpt><trkpt lat="41.577427" lon="2.009990"><ele>324.58</ele><time>2012-03-15T16:01:58Z</time></trkpt><trkpt lat="41.577522" lon="2.009998"><ele>326.50</ele><time>2012-03-15T16:02:02Z</time></trkpt><trkpt lat="41.577663" lon="2.010007"><ele>331.79</ele><time>2012-03-15T16:02:07Z</time></trkpt><trkpt lat="41.577999" lon="2.009920"><ele>335.16</ele><time>2012-03-15T16:02:19Z</time></trkpt><trkpt lat="41.578217" lon="2.009857"><ele>338.52</ele><time>2012-03-15T16:02:27Z</time></trkpt><trkpt lat="41.578556" lon="2.009789"><ele>340.92</ele><time>2012-03-15T16:02:39Z</time></trkpt><trkpt lat="41.578815" lon="2.009803"><ele>340.92</ele><time>2012-03-15T16:02:51Z</time></trkpt><trkpt lat="41.579079" lon="2.009818"><ele>341.41</ele><time>2012-03-15T16:03:02Z</time></trkpt><trkpt lat="41.579090" lon="2.009819"><ele>342.85</ele><time>2012-03-15T16:03:03Z</time></trkpt><trkpt lat="41.579124" lon="2.009818"><ele>343.81</ele><time>2012-03-15T16:03:04Z</time></trkpt><trkpt lat="41.579502" lon="2.009747"><ele>344.29</ele><time>2012-03-15T16:03:19Z</time></trkpt><trkpt lat="41.579849" lon="2.009699"><ele>345.25</ele><time>2012-03-15T16:03:33Z</time></trkpt><trkpt lat="41.580143" lon="2.009787"><ele>346.69</ele><time>2012-03-15T16:03:48Z</time></trkpt><trkpt lat="41.580441" lon="2.009757"><ele>348.13</ele><time>2012-03-15T16:04:00Z</time></trkpt><trkpt lat="41.580799" lon="2.009773"><ele>348.62</ele><time>2012-03-15T16:04:14Z</time></trkpt><trkpt lat="41.581104" lon="2.009750"><ele>349.10</ele><time>2012-03-15T16:04:26Z</time></trkpt><trkpt lat="41.581177" lon="2.009757"><ele>349.10</ele><time>2012-03-15T16:04:29Z</time></trkpt><trkpt lat="41.581467" lon="2.009726"><ele>351.02</ele><time>2012-03-15T16:04:40Z</time></trkpt><trkpt lat="41.581612" lon="2.009698"><ele>350.06</ele><time>2012-03-15T16:04:45Z</time></trkpt><trkpt lat="41.581627" lon="2.009694"><ele>351.50</ele><time>2012-03-15T16:04:46Z</time></trkpt><trkpt lat="41.581688" lon="2.009678"><ele>350.06</ele><time>2012-03-15T16:04:48Z</time></trkpt><trkpt lat="41.581760" lon="2.009697"><ele>351.98</ele><time>2012-03-15T16:04:51Z</time></trkpt><trkpt lat="41.582096" lon="2.010003"><ele>353.42</ele><time>2012-03-15T16:05:05Z</time></trkpt><trkpt lat="41.582165" lon="2.010081"><ele>352.94</ele><time>2012-03-15T16:05:09Z</time></trkpt><trkpt lat="41.582176" lon="2.010095"><ele>353.90</ele><time>2012-03-15T16:05:10Z</time></trkpt><trkpt lat="41.582405" lon="2.010245"><ele>355.34</ele><time>2012-03-15T16:05:21Z</time></trkpt><trkpt lat="41.582558" lon="2.010442"><ele>354.86</ele><time>2012-03-15T16:05:32Z</time></trkpt><trkpt lat="41.582565" lon="2.010452"><ele>356.31</ele><time>2012-03-15T16:05:33Z</time></trkpt><trkpt lat="41.582760" lon="2.010653"><ele>355.34</ele><time>2012-03-15T16:05:42Z</time></trkpt><trkpt lat="41.582787" lon="2.010678"><ele>357.27</ele><time>2012-03-15T16:05:43Z</time></trkpt><trkpt lat="41.582935" lon="2.011029"><ele>358.23</ele><time>2012-03-15T16:05:56Z</time></trkpt><trkpt lat="41.582970" lon="2.011150"><ele>356.31</ele><time>2012-03-15T16:06:03Z</time></trkpt><trkpt lat="41.582973" lon="2.011160"><ele>357.75</ele><time>2012-03-15T16:06:04Z</time></trkpt><trkpt lat="41.582973" lon="2.011166"><ele>357.75</ele><time>2012-03-15T16:06:05Z</time></trkpt><trkpt lat="41.582996" lon="2.011264"><ele>356.79</ele><time>2012-03-15T16:06:08Z</time></trkpt><trkpt lat="41.583004" lon="2.011270"><ele>358.23</ele><time>2012-03-15T16:06:09Z</time></trkpt><trkpt lat="41.583027" lon="2.011258"><ele>357.27</ele><time>2012-03-15T16:06:10Z</time></trkpt><trkpt lat="41.583160" lon="2.011334"><ele>357.75</ele><time>2012-03-15T16:06:16Z</time></trkpt><trkpt lat="41.583549" lon="2.011364"><ele>359.67</ele><time>2012-03-15T16:06:29Z</time></trkpt><trkpt lat="41.583794" lon="2.011727"><ele>361.11</ele><time>2012-03-15T16:06:42Z</time></trkpt><trkpt lat="41.583900" lon="2.012162"><ele>361.59</ele><time>2012-03-15T16:06:56Z</time></trkpt><trkpt lat="41.583900" lon="2.012671"><ele>363.04</ele><time>2012-03-15T16:07:11Z</time></trkpt><trkpt lat="41.583870" lon="2.012891"><ele>362.07</ele><time>2012-03-15T16:07:17Z</time></trkpt><trkpt lat="41.583847" lon="2.013353"><ele>364.00</ele><time>2012-03-15T16:07:30Z</time></trkpt><trkpt lat="41.583851" lon="2.013853"><ele>363.52</ele><time>2012-03-15T16:07:43Z</time></trkpt><trkpt lat="41.583881" lon="2.013922"><ele>364.96</ele><time>2012-03-15T16:07:45Z</time></trkpt><trkpt lat="41.583900" lon="2.013968"><ele>364.96</ele><time>2012-03-15T16:07:47Z</time></trkpt><trkpt lat="41.583950" lon="2.014408"><ele>364.48</ele><time>2012-03-15T16:08:01Z</time></trkpt><trkpt lat="41.583923" lon="2.014807"><ele>365.92</ele><time>2012-03-15T16:08:12Z</time></trkpt><trkpt lat="41.583981" lon="2.014958"><ele>366.88</ele><time>2012-03-15T16:08:18Z</time></trkpt><trkpt lat="41.584076" lon="2.015318"><ele>367.36</ele><time>2012-03-15T16:08:30Z</time></trkpt><trkpt lat="41.584126" lon="2.015826"><ele>367.84</ele><time>2012-03-15T16:08:45Z</time></trkpt><trkpt lat="41.584133" lon="2.015991"><ele>369.28</ele><time>2012-03-15T16:08:50Z</time></trkpt><trkpt lat="41.584156" lon="2.016426"><ele>368.80</ele><time>2012-03-15T16:09:03Z</time></trkpt><trkpt lat="41.584190" lon="2.016933"><ele>368.32</ele><time>2012-03-15T16:09:18Z</time></trkpt><trkpt lat="41.584171" lon="2.017320"><ele>370.24</ele><time>2012-03-15T16:09:30Z</time></trkpt><trkpt lat="41.584198" lon="2.017777"><ele>370.73</ele><time>2012-03-15T16:09:43Z</time></trkpt><trkpt lat="41.584255" lon="2.018125"><ele>370.73</ele><time>2012-03-15T16:09:54Z</time></trkpt><trkpt lat="41.584358" lon="2.018427"><ele>372.17</ele><time>2012-03-15T16:10:07Z</time></trkpt><trkpt lat="41.584774" lon="2.018517"><ele>373.61</ele><time>2012-03-15T16:10:23Z</time></trkpt><trkpt lat="41.584881" lon="2.018498"><ele>372.17</ele><time>2012-03-15T16:10:27Z</time></trkpt><trkpt lat="41.585209" lon="2.018554"><ele>375.05</ele><time>2012-03-15T16:10:39Z</time></trkpt><trkpt lat="41.585400" lon="2.018526"><ele>374.09</ele><time>2012-03-15T16:10:45Z</time></trkpt><trkpt lat="41.585655" lon="2.018582"><ele>376.01</ele><time>2012-03-15T16:10:59Z</time></trkpt><trkpt lat="41.586010" lon="2.018469"><ele>377.45</ele><time>2012-03-15T16:11:11Z</time></trkpt><trkpt lat="41.586422" lon="2.018473"><ele>378.90</ele><time>2012-03-15T16:11:26Z</time></trkpt><trkpt lat="41.586494" lon="2.018470"><ele>378.90</ele><time>2012-03-15T16:11:30Z</time></trkpt><trkpt lat="41.586426" lon="2.018568"><ele>379.38</ele><time>2012-03-15T16:11:34Z</time></trkpt><trkpt lat="41.586643" lon="2.018647"><ele>379.86</ele><time>2012-03-15T16:11:46Z</time></trkpt><trkpt lat="41.587055" lon="2.018761"><ele>380.82</ele><time>2012-03-15T16:12:02Z</time></trkpt><trkpt lat="41.587357" lon="2.018772"><ele>381.78</ele><time>2012-03-15T16:12:14Z</time></trkpt><trkpt lat="41.587662" lon="2.018819"><ele>383.22</ele><time>2012-03-15T16:12:26Z</time></trkpt><trkpt lat="41.587963" lon="2.018895"><ele>383.70</ele><time>2012-03-15T16:12:38Z</time></trkpt><trkpt lat="41.588257" lon="2.018934"><ele>384.66</ele><time>2012-03-15T16:12:49Z</time></trkpt><trkpt lat="41.588600" lon="2.018979"><ele>386.11</ele><time>2012-03-15T16:13:02Z</time></trkpt><trkpt lat="41.588783" lon="2.019013"><ele>387.55</ele><time>2012-03-15T16:13:10Z</time></trkpt><trkpt lat="41.589111" lon="2.019080"><ele>387.55</ele><time>2012-03-15T16:13:23Z</time></trkpt><trkpt lat="41.589436" lon="2.019161"><ele>389.47</ele><time>2012-03-15T16:13:37Z</time></trkpt><trkpt lat="41.589733" lon="2.019211"><ele>390.91</ele><time>2012-03-15T16:13:51Z</time></trkpt><trkpt lat="41.590034" lon="2.019230"><ele>392.84</ele><time>2012-03-15T16:14:04Z</time></trkpt><trkpt lat="41.590446" lon="2.019260"><ele>395.24</ele><time>2012-03-15T16:14:21Z</time></trkpt><trkpt lat="41.590702" lon="2.019326"><ele>395.72</ele><time>2012-03-15T16:14:32Z</time></trkpt><trkpt lat="41.590820" lon="2.019509"><ele>396.20</ele><time>2012-03-15T16:14:40Z</time></trkpt><trkpt lat="41.590912" lon="2.019924"><ele>396.20</ele><time>2012-03-15T16:14:53Z</time></trkpt><trkpt lat="41.591129" lon="2.020175"><ele>396.68</ele><time>2012-03-15T16:15:05Z</time></trkpt><trkpt lat="41.591362" lon="2.020486"><ele>397.16</ele><time>2012-03-15T16:15:18Z</time></trkpt><trkpt lat="41.591568" lon="2.020809"><ele>398.60</ele><time>2012-03-15T16:15:30Z</time></trkpt><trkpt lat="41.591629" lon="2.020934"><ele>399.57</ele><time>2012-03-15T16:15:34Z</time></trkpt><trkpt lat="41.591816" lon="2.021158"><ele>399.57</ele><time>2012-03-15T16:15:46Z</time></trkpt><trkpt lat="41.591972" lon="2.021498"><ele>400.05</ele><time>2012-03-15T16:16:00Z</time></trkpt><trkpt lat="41.592159" lon="2.021914"><ele>400.53</ele><time>2012-03-15T16:16:14Z</time></trkpt><trkpt lat="41.592278" lon="2.022080"><ele>399.08</ele><time>2012-03-15T16:16:23Z</time></trkpt><trkpt lat="41.592575" lon="2.022221"><ele>399.57</ele><time>2012-03-15T16:16:37Z</time></trkpt><trkpt lat="41.592800" lon="2.022218"><ele>399.08</ele><time>2012-03-15T16:16:48Z</time></trkpt><trkpt lat="41.593159" lon="2.022268"><ele>400.05</ele><time>2012-03-15T16:17:03Z</time></trkpt><trkpt lat="41.593426" lon="2.022311"><ele>401.01</ele><time>2012-03-15T16:17:15Z</time></trkpt><trkpt lat="41.593739" lon="2.022352"><ele>402.45</ele><time>2012-03-15T16:17:29Z</time></trkpt><trkpt lat="41.594112" lon="2.022477"><ele>402.93</ele><time>2012-03-15T16:17:44Z</time></trkpt><trkpt lat="41.594402" lon="2.022573"><ele>405.33</ele><time>2012-03-15T16:17:57Z</time></trkpt><trkpt lat="41.594666" lon="2.022685"><ele>405.33</ele><time>2012-03-15T16:18:10Z</time></trkpt><trkpt lat="41.594906" lon="2.022821"><ele>407.26</ele><time>2012-03-15T16:18:22Z</time></trkpt><trkpt lat="41.595184" lon="2.022991"><ele>408.22</ele><time>2012-03-15T16:18:36Z</time></trkpt><trkpt lat="41.595474" lon="2.023107"><ele>408.22</ele><time>2012-03-15T16:18:49Z</time></trkpt><trkpt lat="41.595730" lon="2.023255"><ele>410.14</ele><time>2012-03-15T16:19:01Z</time></trkpt><trkpt lat="41.596073" lon="2.023404"><ele>410.14</ele><time>2012-03-15T16:19:17Z</time></trkpt><trkpt lat="41.596375" lon="2.023516"><ele>412.54</ele><time>2012-03-15T16:19:31Z</time></trkpt><trkpt lat="41.596664" lon="2.023658"><ele>413.98</ele><time>2012-03-15T16:19:44Z</time></trkpt><trkpt lat="41.597015" lon="2.023777"><ele>414.95</ele><time>2012-03-15T16:19:59Z</time></trkpt><trkpt lat="41.597286" lon="2.023837"><ele>416.87</ele><time>2012-03-15T16:20:12Z</time></trkpt><trkpt lat="41.597336" lon="2.023842"><ele>416.87</ele><time>2012-03-15T16:20:15Z</time></trkpt><trkpt lat="41.597454" lon="2.023986"><ele>414.47</ele><time>2012-03-15T16:20:24Z</time></trkpt><trkpt lat="41.597450" lon="2.024433"><ele>412.54</ele><time>2012-03-15T16:20:37Z</time></trkpt><trkpt lat="41.597450" lon="2.024554"><ele>415.91</ele><time>2012-03-15T16:20:44Z</time></trkpt><trkpt lat="41.597679" lon="2.024700"><ele>417.35</ele><time>2012-03-15T16:20:58Z</time></trkpt><trkpt lat="41.597969" lon="2.024691"><ele>418.31</ele><time>2012-03-15T16:21:10Z</time></trkpt><trkpt lat="41.598278" lon="2.024713"><ele>419.75</ele><time>2012-03-15T16:21:23Z</time></trkpt><trkpt lat="41.598595" lon="2.024673"><ele>421.19</ele><time>2012-03-15T16:21:37Z</time></trkpt><trkpt lat="41.598938" lon="2.024649"><ele>422.64</ele><time>2012-03-15T16:21:51Z</time></trkpt><trkpt lat="41.599274" lon="2.024588"><ele>424.08</ele><time>2012-03-15T16:22:03Z</time></trkpt><trkpt lat="41.599586" lon="2.024543"><ele>425.04</ele><time>2012-03-15T16:22:15Z</time></trkpt><trkpt lat="41.599834" lon="2.024422"><ele>426.96</ele><time>2012-03-15T16:22:27Z</time></trkpt><trkpt lat="41.600128" lon="2.024335"><ele>427.44</ele><time>2012-03-15T16:22:38Z</time></trkpt><trkpt lat="41.600365" lon="2.024278"><ele>428.40</ele><time>2012-03-15T16:22:49Z</time></trkpt><trkpt lat="41.600704" lon="2.024132"><ele>430.33</ele><time>2012-03-15T16:23:03Z</time></trkpt><trkpt lat="41.600979" lon="2.023971"><ele>429.85</ele><time>2012-03-15T16:23:16Z</time></trkpt><trkpt lat="41.601189" lon="2.023855"><ele>432.73</ele><time>2012-03-15T16:23:28Z</time></trkpt><trkpt lat="41.601437" lon="2.023664"><ele>433.21</ele><time>2012-03-15T16:23:39Z</time></trkpt><trkpt lat="41.601715" lon="2.023547"><ele>434.65</ele><time>2012-03-15T16:23:51Z</time></trkpt><trkpt lat="41.602032" lon="2.023457"><ele>435.61</ele><time>2012-03-15T16:24:04Z</time></trkpt><trkpt lat="41.602264" lon="2.023266"><ele>437.06</ele><time>2012-03-15T16:24:15Z</time></trkpt><trkpt lat="41.602505" lon="2.023230"><ele>439.46</ele><time>2012-03-15T16:24:28Z</time></trkpt><trkpt lat="41.602615" lon="2.023168"><ele>439.46</ele><time>2012-03-15T16:24:34Z</time></trkpt><trkpt lat="41.602905" lon="2.023019"><ele>439.46</ele><time>2012-03-15T16:24:47Z</time></trkpt><trkpt lat="41.602947" lon="2.022998"><ele>440.42</ele><time>2012-03-15T16:24:49Z</time></trkpt><trkpt lat="41.603325" lon="2.022757"><ele>440.42</ele><time>2012-03-15T16:25:06Z</time></trkpt><trkpt lat="41.603649" lon="2.022554"><ele>440.90</ele><time>2012-03-15T16:25:19Z</time></trkpt><trkpt lat="41.603928" lon="2.022346"><ele>442.82</ele><time>2012-03-15T16:25:32Z</time></trkpt><trkpt lat="41.604031" lon="2.022264"><ele>443.31</ele><time>2012-03-15T16:25:37Z</time></trkpt><trkpt lat="41.604294" lon="2.021995"><ele>444.27</ele><time>2012-03-15T16:25:51Z</time></trkpt><trkpt lat="41.604507" lon="2.021721"><ele>445.23</ele><time>2012-03-15T16:26:04Z</time></trkpt><trkpt lat="41.604717" lon="2.021491"><ele>446.67</ele><time>2012-03-15T16:26:16Z</time></trkpt><trkpt lat="41.604900" lon="2.021224"><ele>446.67</ele><time>2012-03-15T16:26:29Z</time></trkpt><trkpt lat="41.605175" lon="2.020795"><ele>448.59</ele><time>2012-03-15T16:26:45Z</time></trkpt><trkpt lat="41.605366" lon="2.020481"><ele>450.03</ele><time>2012-03-15T16:26:58Z</time></trkpt><trkpt lat="41.605446" lon="2.020410"><ele>451.96</ele><time>2012-03-15T16:27:07Z</time></trkpt><trkpt lat="41.605663" lon="2.020682"><ele>453.40</ele><time>2012-03-15T16:27:21Z</time></trkpt><trkpt lat="41.605843" lon="2.020841"><ele>456.76</ele><time>2012-03-15T16:27:32Z</time></trkpt><trkpt lat="41.606071" lon="2.021046"><ele>457.24</ele><time>2012-03-15T16:27:47Z</time></trkpt><trkpt lat="41.606323" lon="2.021335"><ele>458.21</ele><time>2012-03-15T16:28:00Z</time></trkpt><trkpt lat="41.606583" lon="2.021593"><ele>459.17</ele><time>2012-03-15T16:28:15Z</time></trkpt><trkpt lat="41.606762" lon="2.021726"><ele>460.13</ele><time>2012-03-15T16:28:28Z</time></trkpt><trkpt lat="41.606869" lon="2.021843"><ele>459.17</ele><time>2012-03-15T16:28:35Z</time></trkpt><trkpt lat="41.606895" lon="2.021884"><ele>460.61</ele><time>2012-03-15T16:28:40Z</time></trkpt><trkpt lat="41.606804" lon="2.022037"><ele>459.65</ele><time>2012-03-15T16:28:45Z</time></trkpt><trkpt lat="41.606739" lon="2.022187"><ele>459.65</ele><time>2012-03-15T16:28:50Z</time></trkpt><trkpt lat="41.606575" lon="2.022492"><ele>458.21</ele><time>2012-03-15T16:29:03Z</time></trkpt><trkpt lat="41.606567" lon="2.022512"><ele>457.24</ele><time>2012-03-15T16:29:04Z</time></trkpt><trkpt lat="41.606533" lon="2.022578"><ele>457.72</ele><time>2012-03-15T16:29:07Z</time></trkpt><trkpt lat="41.606335" lon="2.023016"><ele>455.80</ele><time>2012-03-15T16:29:23Z</time></trkpt><trkpt lat="41.606312" lon="2.023094"><ele>457.24</ele><time>2012-03-15T16:29:26Z</time></trkpt><trkpt lat="41.606358" lon="2.023175"><ele>458.21</ele><time>2012-03-15T16:29:30Z</time></trkpt><trkpt lat="41.606441" lon="2.023253"><ele>458.21</ele><time>2012-03-15T16:29:35Z</time></trkpt><trkpt lat="41.606876" lon="2.023121"><ele>458.69</ele><time>2012-03-15T16:29:43Z</time></trkpt><trkpt lat="41.607109" lon="2.022882"><ele>460.13</ele><time>2012-03-15T16:29:58Z</time></trkpt><trkpt lat="41.607380" lon="2.022635"><ele>461.09</ele><time>2012-03-15T16:30:12Z</time></trkpt><trkpt lat="41.607658" lon="2.022470"><ele>464.93</ele><time>2012-03-15T16:30:25Z</time></trkpt><trkpt lat="41.607918" lon="2.022504"><ele>466.38</ele><time>2012-03-15T16:30:41Z</time></trkpt><trkpt lat="41.608227" lon="2.022602"><ele>466.38</ele><time>2012-03-15T16:30:54Z</time></trkpt><trkpt lat="41.608368" lon="2.022551"><ele>466.86</ele><time>2012-03-15T16:31:00Z</time></trkpt><trkpt lat="41.608505" lon="2.022268"><ele>469.26</ele><time>2012-03-15T16:31:15Z</time></trkpt><trkpt lat="41.608788" lon="2.022045"><ele>471.66</ele><time>2012-03-15T16:31:30Z</time></trkpt><trkpt lat="41.609097" lon="2.021977"><ele>475.03</ele><time>2012-03-15T16:31:45Z</time></trkpt><trkpt lat="41.609360" lon="2.021921"><ele>476.47</ele><time>2012-03-15T16:31:59Z</time></trkpt><trkpt lat="41.609665" lon="2.021837"><ele>478.87</ele><time>2012-03-15T16:32:13Z</time></trkpt><trkpt lat="41.609921" lon="2.021816"><ele>480.80</ele><time>2012-03-15T16:32:29Z</time></trkpt><trkpt lat="41.609978" lon="2.021793"><ele>482.24</ele><time>2012-03-15T16:32:34Z</time></trkpt><trkpt lat="41.610233" lon="2.021787"><ele>485.12</ele><time>2012-03-15T16:32:48Z</time></trkpt><trkpt lat="41.610531" lon="2.021775"><ele>488.01</ele><time>2012-03-15T16:33:02Z</time></trkpt><trkpt lat="41.610569" lon="2.021792"><ele>488.49</ele><time>2012-03-15T16:33:08Z</time></trkpt><trkpt lat="41.610645" lon="2.021740"><ele>491.85</ele><time>2012-03-15T16:33:22Z</time></trkpt><trkpt lat="41.610668" lon="2.021720"><ele>493.29</ele><time>2012-03-15T16:33:26Z</time></trkpt><trkpt lat="41.610676" lon="2.021719"><ele>493.29</ele><time>2012-03-15T16:33:27Z</time></trkpt><trkpt lat="41.610661" lon="2.021686"><ele>495.70</ele><time>2012-03-15T16:33:35Z</time></trkpt><trkpt lat="41.610676" lon="2.021657"><ele>495.22</ele><time>2012-03-15T16:33:37Z</time></trkpt><trkpt lat="41.610680" lon="2.021649"><ele>491.37</ele><time>2012-03-15T16:33:41Z</time></trkpt><trkpt lat="41.610680" lon="2.021649"><ele>496.66</ele><time>2012-03-15T16:33:42Z</time></trkpt><trkpt lat="41.610680" lon="2.021649"><ele>497.14</ele><time>2012-03-15T16:33:43Z</time></trkpt><trkpt lat="41.610680" lon="2.021649"><ele>489.93</ele><time>2012-03-15T16:33:46Z</time></trkpt><trkpt lat="41.610680" lon="2.021649"><ele>500.98</ele><time>2012-03-15T16:33:47Z</time></trkpt><trkpt lat="41.610680" lon="2.021649"><ele>500.02</ele><time>2012-03-15T16:33:48Z</time></trkpt><trkpt lat="41.610680" lon="2.021649"><ele>492.33</ele><time>2012-03-15T16:33:50Z</time></trkpt><trkpt lat="41.610680" lon="2.021649"><ele>497.14</ele><time>2012-03-15T16:33:51Z</time></trkpt><trkpt lat="41.610695" lon="2.021625"><ele>497.62</ele><time>2012-03-15T16:34:00Z</time></trkpt><trkpt lat="41.610809" lon="2.021507"><ele>500.98</ele><time>2012-03-15T16:34:14Z</time></trkpt><trkpt lat="41.610825" lon="2.021492"><ele>501.95</ele><time>2012-03-15T16:34:17Z</time></trkpt><trkpt lat="41.610920" lon="2.021455"><ele>505.79</ele><time>2012-03-15T16:34:26Z</time></trkpt><trkpt lat="41.610928" lon="2.021454"><ele>504.35</ele><time>2012-03-15T16:34:27Z</time></trkpt><trkpt lat="41.610992" lon="2.021413"><ele>505.79</ele><time>2012-03-15T16:34:32Z</time></trkpt><trkpt lat="41.611160" lon="2.021467"><ele>507.71</ele><time>2012-03-15T16:34:48Z</time></trkpt><trkpt lat="41.611233" lon="2.021480"><ele>509.16</ele><time>2012-03-15T16:34:53Z</time></trkpt><trkpt lat="41.611259" lon="2.021485"><ele>507.23</ele><time>2012-03-15T16:34:56Z</time></trkpt><trkpt lat="41.611423" lon="2.021472"><ele>511.56</ele><time>2012-03-15T16:35:05Z</time></trkpt><trkpt lat="41.611496" lon="2.021349"><ele>513.48</ele><time>2012-03-15T16:35:18Z</time></trkpt><trkpt lat="41.611622" lon="2.020993"><ele>517.33</ele><time>2012-03-15T16:35:35Z</time></trkpt><trkpt lat="41.611721" lon="2.020752"><ele>516.85</ele><time>2012-03-15T16:35:42Z</time></trkpt><trkpt lat="41.611744" lon="2.020622"><ele>516.85</ele><time>2012-03-15T16:35:57Z</time></trkpt><trkpt lat="41.611744" lon="2.020615"><ele>519.73</ele><time>2012-03-15T16:36:03Z</time></trkpt><trkpt lat="41.611744" lon="2.020615"><ele>520.21</ele><time>2012-03-15T16:36:04Z</time></trkpt><trkpt lat="41.611717" lon="2.020504"><ele>523.09</ele><time>2012-03-15T16:36:13Z</time></trkpt><trkpt lat="41.611782" lon="2.020460"><ele>523.58</ele><time>2012-03-15T16:36:25Z</time></trkpt><trkpt lat="41.611797" lon="2.020445"><ele>524.06</ele><time>2012-03-15T16:36:26Z</time></trkpt><trkpt lat="41.611973" lon="2.020254"><ele>527.42</ele><time>2012-03-15T16:36:38Z</time></trkpt><trkpt lat="41.612110" lon="2.020044"><ele>528.38</ele><time>2012-03-15T16:36:42Z</time></trkpt><trkpt lat="41.612171" lon="2.019975"><ele>528.38</ele><time>2012-03-15T16:36:44Z</time></trkpt><trkpt lat="41.612450" lon="2.019572"><ele>531.75</ele><time>2012-03-15T16:36:55Z</time></trkpt><trkpt lat="41.612457" lon="2.019570"><ele>531.75</ele><time>2012-03-15T16:36:56Z</time></trkpt><trkpt lat="41.612537" lon="2.019521"><ele>534.15</ele><time>2012-03-15T16:37:04Z</time></trkpt><trkpt lat="41.612576" lon="2.019511"><ele>535.11</ele><time>2012-03-15T16:37:09Z</time></trkpt><trkpt lat="41.612740" lon="2.019511"><ele>537.99</ele><time>2012-03-15T16:37:23Z</time></trkpt><trkpt lat="41.612778" lon="2.019508"><ele>538.48</ele><time>2012-03-15T16:37:26Z</time></trkpt><trkpt lat="41.612888" lon="2.019515"><ele>539.44</ele><time>2012-03-15T16:37:34Z</time></trkpt><trkpt lat="41.613091" lon="2.019662"><ele>542.32</ele><time>2012-03-15T16:37:49Z</time></trkpt><trkpt lat="41.613136" lon="2.019674"><ele>542.80</ele><time>2012-03-15T16:37:53Z</time></trkpt><trkpt lat="41.613178" lon="2.019700"><ele>543.76</ele><time>2012-03-15T16:37:57Z</time></trkpt><trkpt lat="41.613327" lon="2.019761"><ele>546.65</ele><time>2012-03-15T16:38:11Z</time></trkpt><trkpt lat="41.613350" lon="2.019789"><ele>548.57</ele><time>2012-03-15T16:38:14Z</time></trkpt><trkpt lat="41.613358" lon="2.019796"><ele>548.09</ele><time>2012-03-15T16:38:15Z</time></trkpt><trkpt lat="41.613510" lon="2.019944"><ele>550.01</ele><time>2012-03-15T16:38:29Z</time></trkpt><trkpt lat="41.613529" lon="2.019959"><ele>550.97</ele><time>2012-03-15T16:38:31Z</time></trkpt><trkpt lat="41.613693" lon="2.020010"><ele>553.86</ele><time>2012-03-15T16:38:45Z</time></trkpt><trkpt lat="41.613750" lon="2.020068"><ele>555.30</ele><time>2012-03-15T16:38:50Z</time></trkpt><trkpt lat="41.613853" lon="2.020124"><ele>557.22</ele><time>2012-03-15T16:38:58Z</time></trkpt><trkpt lat="41.613895" lon="2.020127"><ele>558.18</ele><time>2012-03-15T16:39:02Z</time></trkpt><trkpt lat="41.613998" lon="2.020110"><ele>559.62</ele><time>2012-03-15T16:39:09Z</time></trkpt><trkpt lat="41.614101" lon="2.020085"><ele>559.62</ele><time>2012-03-15T16:39:15Z</time></trkpt><trkpt lat="41.614269" lon="2.020081"><ele>562.99</ele><time>2012-03-15T16:39:24Z</time></trkpt><trkpt lat="41.614487" lon="2.020128"><ele>565.87</ele><time>2012-03-15T16:39:35Z</time></trkpt><trkpt lat="41.614616" lon="2.020191"><ele>567.32</ele><time>2012-03-15T16:39:41Z</time></trkpt><trkpt lat="41.614780" lon="2.020379"><ele>570.20</ele><time>2012-03-15T16:39:55Z</time></trkpt><trkpt lat="41.614861" lon="2.020399"><ele>573.56</ele><time>2012-03-15T16:40:01Z</time></trkpt><trkpt lat="41.614925" lon="2.020390"><ele>573.08</ele><time>2012-03-15T16:40:06Z</time></trkpt><trkpt lat="41.615067" lon="2.020327"><ele>575.49</ele><time>2012-03-15T16:40:16Z</time></trkpt><trkpt lat="41.615269" lon="2.020226"><ele>579.33</ele><time>2012-03-15T16:40:30Z</time></trkpt><trkpt lat="41.615387" lon="2.020186"><ele>580.29</ele><time>2012-03-15T16:40:39Z</time></trkpt><trkpt lat="41.615479" lon="2.020151"><ele>580.77</ele><time>2012-03-15T16:40:46Z</time></trkpt><trkpt lat="41.615520" lon="2.020150"><ele>582.22</ele><time>2012-03-15T16:40:49Z</time></trkpt><trkpt lat="41.615696" lon="2.020133"><ele>584.14</ele><time>2012-03-15T16:41:02Z</time></trkpt><trkpt lat="41.615883" lon="2.020099"><ele>587.02</ele><time>2012-03-15T16:41:16Z</time></trkpt><trkpt lat="41.615971" lon="2.020074"><ele>587.98</ele><time>2012-03-15T16:41:22Z</time></trkpt><trkpt lat="41.615986" lon="2.020074"><ele>587.98</ele><time>2012-03-15T16:41:23Z</time></trkpt><trkpt lat="41.616066" lon="2.020122"><ele>587.98</ele><time>2012-03-15T16:41:34Z</time></trkpt><trkpt lat="41.616070" lon="2.020066"><ele>588.46</ele><time>2012-03-15T16:41:41Z</time></trkpt><trkpt lat="41.616104" lon="2.020225"><ele>590.39</ele><time>2012-03-15T16:41:54Z</time></trkpt><trkpt lat="41.616116" lon="2.020220"><ele>590.39</ele><time>2012-03-15T16:42:00Z</time></trkpt><trkpt lat="41.616116" lon="2.020278"><ele>591.35</ele><time>2012-03-15T16:42:03Z</time></trkpt><trkpt lat="41.616215" lon="2.020522"><ele>591.83</ele><time>2012-03-15T16:42:18Z</time></trkpt><trkpt lat="41.616234" lon="2.020572"><ele>592.79</ele><time>2012-03-15T16:42:20Z</time></trkpt><trkpt lat="41.616280" lon="2.020722"><ele>594.71</ele><time>2012-03-15T16:42:25Z</time></trkpt><trkpt lat="41.616352" lon="2.020931"><ele>596.64</ele><time>2012-03-15T16:42:34Z</time></trkpt><trkpt lat="41.616398" lon="2.021049"><ele>598.08</ele><time>2012-03-15T16:42:39Z</time></trkpt><trkpt lat="41.616451" lon="2.021166"><ele>598.56</ele><time>2012-03-15T16:42:44Z</time></trkpt><trkpt lat="41.616684" lon="2.021423"><ele>599.04</ele><time>2012-03-15T16:42:58Z</time></trkpt><trkpt lat="41.616817" lon="2.021331"><ele>602.40</ele><time>2012-03-15T16:43:05Z</time></trkpt><trkpt lat="41.616932" lon="2.021102"><ele>603.85</ele><time>2012-03-15T16:43:17Z</time></trkpt><trkpt lat="41.616985" lon="2.021004"><ele>605.29</ele><time>2012-03-15T16:43:23Z</time></trkpt><trkpt lat="41.617001" lon="2.020978"><ele>605.77</ele><time>2012-03-15T16:43:25Z</time></trkpt><trkpt lat="41.617077" lon="2.020780"><ele>609.13</ele><time>2012-03-15T16:43:34Z</time></trkpt><trkpt lat="41.617237" lon="2.020497"><ele>610.57</ele><time>2012-03-15T16:43:47Z</time></trkpt><trkpt lat="41.617310" lon="2.020406"><ele>611.06</ele><time>2012-03-15T16:43:51Z</time></trkpt><trkpt lat="41.617538" lon="2.020152"><ele>614.42</ele><time>2012-03-15T16:44:05Z</time></trkpt><trkpt lat="41.617554" lon="2.020134"><ele>614.42</ele><time>2012-03-15T16:44:06Z</time></trkpt><trkpt lat="41.617809" lon="2.020019"><ele>614.90</ele><time>2012-03-15T16:44:18Z</time></trkpt><trkpt lat="41.618065" lon="2.019938"><ele>614.42</ele><time>2012-03-15T16:44:31Z</time></trkpt><trkpt lat="41.618324" lon="2.019788"><ele>617.30</ele><time>2012-03-15T16:44:44Z</time></trkpt><trkpt lat="41.618458" lon="2.019714"><ele>619.71</ele><time>2012-03-15T16:44:53Z</time></trkpt><trkpt lat="41.618645" lon="2.019604"><ele>622.11</ele><time>2012-03-15T16:45:08Z</time></trkpt><trkpt lat="41.618801" lon="2.019541"><ele>625.47</ele><time>2012-03-15T16:45:23Z</time></trkpt><trkpt lat="41.618946" lon="2.019493"><ele>628.36</ele><time>2012-03-15T16:45:37Z</time></trkpt><trkpt lat="41.619083" lon="2.019452"><ele>631.24</ele><time>2012-03-15T16:45:50Z</time></trkpt><trkpt lat="41.619106" lon="2.019444"><ele>632.20</ele><time>2012-03-15T16:45:52Z</time></trkpt><trkpt lat="41.619160" lon="2.019440"><ele>633.17</ele><time>2012-03-15T16:45:57Z</time></trkpt><trkpt lat="41.619324" lon="2.019391"><ele>637.01</ele><time>2012-03-15T16:46:11Z</time></trkpt><trkpt lat="41.619335" lon="2.019390"><ele>637.01</ele><time>2012-03-15T16:46:12Z</time></trkpt><trkpt lat="41.619480" lon="2.019343"><ele>640.38</ele><time>2012-03-15T16:46:27Z</time></trkpt><trkpt lat="41.619614" lon="2.019314"><ele>643.26</ele><time>2012-03-15T16:46:39Z</time></trkpt><trkpt lat="41.619743" lon="2.019273"><ele>646.14</ele><time>2012-03-15T16:46:51Z</time></trkpt><trkpt lat="41.619835" lon="2.019233"><ele>649.51</ele><time>2012-03-15T16:47:03Z</time></trkpt><trkpt lat="41.619892" lon="2.019188"><ele>651.43</ele><time>2012-03-15T16:47:11Z</time></trkpt><trkpt lat="41.619934" lon="2.019126"><ele>654.31</ele><time>2012-03-15T16:47:22Z</time></trkpt><trkpt lat="41.619987" lon="2.019073"><ele>655.28</ele><time>2012-03-15T16:47:27Z</time></trkpt><trkpt lat="41.620068" lon="2.019053"><ele>657.68</ele><time>2012-03-15T16:47:34Z</time></trkpt><trkpt lat="41.620266" lon="2.019005"><ele>659.60</ele><time>2012-03-15T16:47:49Z</time></trkpt><trkpt lat="41.620441" lon="2.019034"><ele>661.04</ele><time>2012-03-15T16:48:01Z</time></trkpt><trkpt lat="41.620518" lon="2.019011"><ele>661.04</ele><time>2012-03-15T16:48:06Z</time></trkpt><trkpt lat="41.620544" lon="2.019016"><ele>658.64</ele><time>2012-03-15T16:48:08Z</time></trkpt><trkpt lat="41.620560" lon="2.019019"><ele>659.60</ele><time>2012-03-15T16:48:09Z</time></trkpt><trkpt lat="41.620811" lon="2.019002"><ele>660.08</ele><time>2012-03-15T16:48:21Z</time></trkpt><trkpt lat="41.620975" lon="2.018947"><ele>659.60</ele><time>2012-03-15T16:48:28Z</time></trkpt><trkpt lat="41.621014" lon="2.018926"><ele>661.52</ele><time>2012-03-15T16:48:30Z</time></trkpt><trkpt lat="41.621044" lon="2.018906"><ele>662.49</ele><time>2012-03-15T16:48:32Z</time></trkpt><trkpt lat="41.621193" lon="2.018882"><ele>664.89</ele><time>2012-03-15T16:48:41Z</time></trkpt><trkpt lat="41.621277" lon="2.018859"><ele>666.33</ele><time>2012-03-15T16:48:46Z</time></trkpt><trkpt lat="41.621490" lon="2.018796"><ele>669.70</ele><time>2012-03-15T16:48:58Z</time></trkpt><trkpt lat="41.621510" lon="2.018797"><ele>669.70</ele><time>2012-03-15T16:48:59Z</time></trkpt><trkpt lat="41.621677" lon="2.018804"><ele>670.66</ele><time>2012-03-15T16:49:08Z</time></trkpt><trkpt lat="41.621948" lon="2.018941"><ele>668.25</ele><time>2012-03-15T16:49:25Z</time></trkpt><trkpt lat="41.622234" lon="2.019179"><ele>666.81</ele><time>2012-03-15T16:49:39Z</time></trkpt><trkpt lat="41.622509" lon="2.019381"><ele>665.85</ele><time>2012-03-15T16:49:51Z</time></trkpt><trkpt lat="41.622791" lon="2.019593"><ele>667.77</ele><time>2012-03-15T16:50:05Z</time></trkpt><trkpt lat="41.622959" lon="2.019675"><ele>671.62</ele><time>2012-03-15T16:50:17Z</time></trkpt><trkpt lat="41.623093" lon="2.019772"><ele>673.54</ele><time>2012-03-15T16:50:30Z</time></trkpt><trkpt lat="41.623188" lon="2.019816"><ele>676.42</ele><time>2012-03-15T16:50:39Z</time></trkpt><trkpt lat="41.623238" lon="2.019820"><ele>676.42</ele><time>2012-03-15T16:50:44Z</time></trkpt><trkpt lat="41.623360" lon="2.019851"><ele>680.27</ele><time>2012-03-15T16:50:57Z</time></trkpt><trkpt lat="41.623451" lon="2.019874"><ele>683.63</ele><time>2012-03-15T16:51:08Z</time></trkpt><trkpt lat="41.623508" lon="2.019874"><ele>685.08</ele><time>2012-03-15T16:51:14Z</time></trkpt><trkpt lat="41.623623" lon="2.019939"><ele>688.44</ele><time>2012-03-15T16:51:27Z</time></trkpt><trkpt lat="41.623631" lon="2.019940"><ele>688.44</ele><time>2012-03-15T16:51:28Z</time></trkpt><trkpt lat="41.623730" lon="2.019905"><ele>691.81</ele><time>2012-03-15T16:51:41Z</time></trkpt><trkpt lat="41.623840" lon="2.019884"><ele>694.69</ele><time>2012-03-15T16:51:55Z</time></trkpt><trkpt lat="41.623905" lon="2.019901"><ele>698.05</ele><time>2012-03-15T16:52:06Z</time></trkpt><trkpt lat="41.624012" lon="2.019916"><ele>701.42</ele><time>2012-03-15T16:52:20Z</time></trkpt><trkpt lat="41.624069" lon="2.019915"><ele>703.34</ele><time>2012-03-15T16:52:28Z</time></trkpt><trkpt lat="41.624115" lon="2.019914"><ele>704.30</ele><time>2012-03-15T16:52:32Z</time></trkpt><trkpt lat="41.624233" lon="2.019903"><ele>707.67</ele><time>2012-03-15T16:52:44Z</time></trkpt><trkpt lat="41.624271" lon="2.019924"><ele>708.63</ele><time>2012-03-15T16:52:48Z</time></trkpt><trkpt lat="41.624420" lon="2.020021"><ele>711.51</ele><time>2012-03-15T16:53:02Z</time></trkpt><trkpt lat="41.624550" lon="2.020118"><ele>714.40</ele><time>2012-03-15T16:53:17Z</time></trkpt><trkpt lat="41.624557" lon="2.020126"><ele>713.44</ele><time>2012-03-15T16:53:18Z</time></trkpt><trkpt lat="41.624588" lon="2.020163"><ele>714.88</ele><time>2012-03-15T16:53:21Z</time></trkpt><trkpt lat="41.624714" lon="2.020249"><ele>717.28</ele><time>2012-03-15T16:53:33Z</time></trkpt><trkpt lat="41.624767" lon="2.020311"><ele>718.24</ele><time>2012-03-15T16:53:38Z</time></trkpt><trkpt lat="41.624859" lon="2.020460"><ele>720.16</ele><time>2012-03-15T16:53:50Z</time></trkpt><trkpt lat="41.624874" lon="2.020520"><ele>721.13</ele><time>2012-03-15T16:53:54Z</time></trkpt><trkpt lat="41.624969" lon="2.020711"><ele>724.97</ele><time>2012-03-15T16:54:06Z</time></trkpt><trkpt lat="41.625069" lon="2.020885"><ele>728.34</ele><time>2012-03-15T16:54:19Z</time></trkpt><trkpt lat="41.625149" lon="2.020976"><ele>731.22</ele><time>2012-03-15T16:54:31Z</time></trkpt><trkpt lat="41.625175" lon="2.021011"><ele>732.18</ele><time>2012-03-15T16:54:34Z</time></trkpt><trkpt lat="41.625233" lon="2.021078"><ele>734.10</ele><time>2012-03-15T16:54:42Z</time></trkpt><trkpt lat="41.625267" lon="2.021108"><ele>735.55</ele><time>2012-03-15T16:54:46Z</time></trkpt><trkpt lat="41.625305" lon="2.021127"><ele>736.51</ele><time>2012-03-15T16:54:51Z</time></trkpt><trkpt lat="41.625397" lon="2.021189"><ele>740.35</ele><time>2012-03-15T16:55:03Z</time></trkpt><trkpt lat="41.625423" lon="2.021216"><ele>741.31</ele><time>2012-03-15T16:55:07Z</time></trkpt><trkpt lat="41.625504" lon="2.021290"><ele>743.24</ele><time>2012-03-15T16:55:14Z</time></trkpt><trkpt lat="41.625580" lon="2.021375"><ele>746.60</ele><time>2012-03-15T16:55:26Z</time></trkpt><trkpt lat="41.625610" lon="2.021404"><ele>748.04</ele><time>2012-03-15T16:55:30Z</time></trkpt><trkpt lat="41.625793" lon="2.021467"><ele>750.45</ele><time>2012-03-15T16:55:44Z</time></trkpt><trkpt lat="41.625908" lon="2.021496"><ele>749.00</ele><time>2012-03-15T16:55:51Z</time></trkpt><trkpt lat="41.625999" lon="2.021453"><ele>748.52</ele><time>2012-03-15T16:55:58Z</time></trkpt><trkpt lat="41.626183" lon="2.021431"><ele>749.49</ele><time>2012-03-15T16:56:07Z</time></trkpt><trkpt lat="41.626553" lon="2.021457"><ele>749.00</ele><time>2012-03-15T16:56:20Z</time></trkpt><trkpt lat="41.626892" lon="2.021422"><ele>749.97</ele><time>2012-03-15T16:56:34Z</time></trkpt><trkpt lat="41.627113" lon="2.021439"><ele>752.37</ele><time>2012-03-15T16:56:47Z</time></trkpt><trkpt lat="41.627186" lon="2.021429"><ele>753.81</ele><time>2012-03-15T16:56:50Z</time></trkpt><trkpt lat="41.627460" lon="2.021276"><ele>756.21</ele><time>2012-03-15T16:57:02Z</time></trkpt><trkpt lat="41.627575" lon="2.021202"><ele>760.06</ele><time>2012-03-15T16:57:09Z</time></trkpt><trkpt lat="41.627697" lon="2.021082"><ele>761.50</ele><time>2012-03-15T16:57:19Z</time></trkpt><trkpt lat="41.627739" lon="2.021067"><ele>762.94</ele><time>2012-03-15T16:57:23Z</time></trkpt><trkpt lat="41.627796" lon="2.021026"><ele>763.90</ele><time>2012-03-15T16:57:30Z</time></trkpt><trkpt lat="41.627819" lon="2.020993"><ele>764.87</ele><time>2012-03-15T16:57:33Z</time></trkpt><trkpt lat="41.627914" lon="2.020879"><ele>768.23</ele><time>2012-03-15T16:57:48Z</time></trkpt><trkpt lat="41.627995" lon="2.020817"><ele>772.08</ele><time>2012-03-15T16:58:03Z</time></trkpt><trkpt lat="41.628014" lon="2.020782"><ele>773.04</ele><time>2012-03-15T16:58:08Z</time></trkpt><trkpt lat="41.628124" lon="2.020718"><ele>776.40</ele><time>2012-03-15T16:58:19Z</time></trkpt><trkpt lat="41.628136" lon="2.020716"><ele>776.40</ele><time>2012-03-15T16:58:20Z</time></trkpt><trkpt lat="41.628181" lon="2.020711"><ele>779.29</ele><time>2012-03-15T16:58:29Z</time></trkpt><trkpt lat="41.628246" lon="2.020678"><ele>782.65</ele><time>2012-03-15T16:58:43Z</time></trkpt><trkpt lat="41.628326" lon="2.020624"><ele>785.05</ele><time>2012-03-15T16:58:55Z</time></trkpt><trkpt lat="41.628342" lon="2.020611"><ele>786.98</ele><time>2012-03-15T16:59:02Z</time></trkpt><trkpt lat="41.628441" lon="2.020619"><ele>790.34</ele><time>2012-03-15T16:59:14Z</time></trkpt><trkpt lat="41.628483" lon="2.020647"><ele>791.30</ele><time>2012-03-15T16:59:19Z</time></trkpt><trkpt lat="41.628582" lon="2.020644"><ele>793.22</ele><time>2012-03-15T16:59:29Z</time></trkpt><trkpt lat="41.628613" lon="2.020620"><ele>794.67</ele><time>2012-03-15T16:59:33Z</time></trkpt><trkpt lat="41.628693" lon="2.020601"><ele>798.03</ele><time>2012-03-15T16:59:45Z</time></trkpt><trkpt lat="41.628746" lon="2.020606"><ele>799.47</ele><time>2012-03-15T16:59:52Z</time></trkpt><trkpt lat="41.628838" lon="2.020613"><ele>803.32</ele><time>2012-03-15T17:00:02Z</time></trkpt><trkpt lat="41.628845" lon="2.020615"><ele>803.32</ele><time>2012-03-15T17:00:03Z</time></trkpt><trkpt lat="41.628941" lon="2.020610"><ele>807.16</ele><time>2012-03-15T17:00:16Z</time></trkpt><trkpt lat="41.628967" lon="2.020621"><ele>808.13</ele><time>2012-03-15T17:00:22Z</time></trkpt><trkpt lat="41.628990" lon="2.020622"><ele>810.53</ele><time>2012-03-15T17:00:24Z</time></trkpt><trkpt lat="41.629009" lon="2.020612"><ele>810.05</ele><time>2012-03-15T17:00:26Z</time></trkpt><trkpt lat="41.629044" lon="2.020617"><ele>812.45</ele><time>2012-03-15T17:00:33Z</time></trkpt><trkpt lat="41.629189" lon="2.020684"><ele>813.89</ele><time>2012-03-15T17:00:48Z</time></trkpt><trkpt lat="41.629230" lon="2.020741"><ele>813.89</ele><time>2012-03-15T17:00:53Z</time></trkpt><trkpt lat="41.629318" lon="2.020790"><ele>815.82</ele><time>2012-03-15T17:01:00Z</time></trkpt><trkpt lat="41.629463" lon="2.020908"><ele>816.30</ele><time>2012-03-15T17:01:13Z</time></trkpt><trkpt lat="41.629608" lon="2.020823"><ele>820.62</ele><time>2012-03-15T17:01:22Z</time></trkpt><trkpt lat="41.629608" lon="2.020823"><ele>821.10</ele><time>2012-03-15T17:01:23Z</time></trkpt><trkpt lat="41.629662" lon="2.020705"><ele>822.06</ele><time>2012-03-15T17:01:29Z</time></trkpt><trkpt lat="41.629681" lon="2.020645"><ele>825.91</ele><time>2012-03-15T17:01:40Z</time></trkpt><trkpt lat="41.629700" lon="2.020601"><ele>829.27</ele><time>2012-03-15T17:01:54Z</time></trkpt><trkpt lat="41.629700" lon="2.020601"><ele>829.76</ele><time>2012-03-15T17:01:55Z</time></trkpt><trkpt lat="41.629696" lon="2.020597"><ele>831.20</ele><time>2012-03-15T17:02:04Z</time></trkpt><trkpt lat="41.629681" lon="2.020562"><ele>832.64</ele><time>2012-03-15T17:02:07Z</time></trkpt><trkpt lat="41.629654" lon="2.020506"><ele>836.48</ele><time>2012-03-15T17:02:19Z</time></trkpt><trkpt lat="41.629665" lon="2.020435"><ele>839.37</ele><time>2012-03-15T17:02:31Z</time></trkpt><trkpt lat="41.629646" lon="2.020376"><ele>841.77</ele><time>2012-03-15T17:02:42Z</time></trkpt><trkpt lat="41.629604" lon="2.020392"><ele>843.69</ele><time>2012-03-15T17:02:47Z</time></trkpt><trkpt lat="41.629562" lon="2.020378"><ele>843.21</ele><time>2012-03-15T17:02:49Z</time></trkpt><trkpt lat="41.629436" lon="2.020247"><ele>846.58</ele><time>2012-03-15T17:03:02Z</time></trkpt><trkpt lat="41.629417" lon="2.020226"><ele>847.06</ele><time>2012-03-15T17:03:05Z</time></trkpt><trkpt lat="41.629417" lon="2.020187"><ele>847.54</ele><time>2012-03-15T17:03:08Z</time></trkpt><trkpt lat="41.629456" lon="2.020080"><ele>849.94</ele><time>2012-03-15T17:03:21Z</time></trkpt><trkpt lat="41.629456" lon="2.020047"><ele>853.31</ele><time>2012-03-15T17:03:32Z</time></trkpt><trkpt lat="41.629456" lon="2.020042"><ele>854.27</ele><time>2012-03-15T17:03:34Z</time></trkpt><trkpt lat="41.629459" lon="2.019991"><ele>856.19</ele><time>2012-03-15T17:03:43Z</time></trkpt><trkpt lat="41.629478" lon="2.019888"><ele>859.56</ele><time>2012-03-15T17:03:57Z</time></trkpt><trkpt lat="41.629494" lon="2.019851"><ele>861.48</ele><time>2012-03-15T17:04:02Z</time></trkpt><trkpt lat="41.629524" lon="2.019780"><ele>864.84</ele><time>2012-03-15T17:04:14Z</time></trkpt><trkpt lat="41.629581" lon="2.019697"><ele>867.25</ele><time>2012-03-15T17:04:27Z</time></trkpt><trkpt lat="41.629608" lon="2.019651"><ele>869.17</ele><time>2012-03-15T17:04:34Z</time></trkpt><trkpt lat="41.629658" lon="2.019625"><ele>870.13</ele><time>2012-03-15T17:04:40Z</time></trkpt><trkpt lat="41.629734" lon="2.019609"><ele>870.61</ele><time>2012-03-15T17:04:46Z</time></trkpt><trkpt lat="41.629776" lon="2.019615"><ele>869.65</ele><time>2012-03-15T17:04:48Z</time></trkpt><trkpt lat="41.629982" lon="2.019547"><ele>869.65</ele><time>2012-03-15T17:04:59Z</time></trkpt><trkpt lat="41.630020" lon="2.019533"><ele>871.09</ele><time>2012-03-15T17:05:01Z</time></trkpt><trkpt lat="41.630123" lon="2.019549"><ele>873.01</ele><time>2012-03-15T17:05:07Z</time></trkpt><trkpt lat="41.630188" lon="2.019566"><ele>873.50</ele><time>2012-03-15T17:05:12Z</time></trkpt><trkpt lat="41.630257" lon="2.019570"><ele>875.42</ele><time>2012-03-15T17:05:18Z</time></trkpt><trkpt lat="41.630310" lon="2.019542"><ele>876.38</ele><time>2012-03-15T17:05:24Z</time></trkpt><trkpt lat="41.630405" lon="2.019527"><ele>878.30</ele><time>2012-03-15T17:05:33Z</time></trkpt><trkpt lat="41.630440" lon="2.019538"><ele>878.78</ele><time>2012-03-15T17:05:35Z</time></trkpt><trkpt lat="41.630486" lon="2.019569"><ele>880.22</ele><time>2012-03-15T17:05:39Z</time></trkpt><trkpt lat="41.630550" lon="2.019610"><ele>880.71</ele><time>2012-03-15T17:05:44Z</time></trkpt><trkpt lat="41.630699" lon="2.019726"><ele>883.59</ele><time>2012-03-15T17:05:58Z</time></trkpt><trkpt lat="41.630733" lon="2.019720"><ele>884.55</ele><time>2012-03-15T17:06:02Z</time></trkpt><trkpt lat="41.630882" lon="2.019775"><ele>884.55</ele><time>2012-03-15T17:06:10Z</time></trkpt><trkpt lat="41.631004" lon="2.019866"><ele>886.47</ele><time>2012-03-15T17:06:17Z</time></trkpt><trkpt lat="41.631313" lon="2.020015"><ele>888.88</ele><time>2012-03-15T17:06:32Z</time></trkpt><trkpt lat="41.631447" lon="2.020043"><ele>886.95</ele><time>2012-03-15T17:06:39Z</time></trkpt><trkpt lat="41.631477" lon="2.020060"><ele>890.32</ele><time>2012-03-15T17:06:41Z</time></trkpt><trkpt lat="41.631489" lon="2.020066"><ele>890.32</ele><time>2012-03-15T17:06:42Z</time></trkpt><trkpt lat="41.631702" lon="2.020194"><ele>893.20</ele><time>2012-03-15T17:07:00Z</time></trkpt><trkpt lat="41.631855" lon="2.020240"><ele>897.05</ele><time>2012-03-15T17:07:15Z</time></trkpt><trkpt lat="41.631866" lon="2.020241"><ele>897.05</ele><time>2012-03-15T17:07:16Z</time></trkpt><trkpt lat="41.631939" lon="2.020258"><ele>898.01</ele><time>2012-03-15T17:07:22Z</time></trkpt><trkpt lat="41.632088" lon="2.020291"><ele>900.41</ele><time>2012-03-15T17:07:34Z</time></trkpt><trkpt lat="41.632137" lon="2.020322"><ele>901.37</ele><time>2012-03-15T17:07:39Z</time></trkpt><trkpt lat="41.632275" lon="2.020410"><ele>904.74</ele><time>2012-03-15T17:07:51Z</time></trkpt><trkpt lat="41.632336" lon="2.020443"><ele>905.70</ele><time>2012-03-15T17:07:56Z</time></trkpt><trkpt lat="41.632339" lon="2.020663"><ele>909.06</ele><time>2012-03-15T17:08:10Z</time></trkpt><trkpt lat="41.632351" lon="2.020709"><ele>909.54</ele><time>2012-03-15T17:08:13Z</time></trkpt><trkpt lat="41.632366" lon="2.020790"><ele>910.51</ele><time>2012-03-15T17:08:18Z</time></trkpt><trkpt lat="41.632401" lon="2.020848"><ele>911.47</ele><time>2012-03-15T17:08:23Z</time></trkpt><trkpt lat="41.632523" lon="2.020962"><ele>915.31</ele><time>2012-03-15T17:08:38Z</time></trkpt><trkpt lat="41.632572" lon="2.021026"><ele>917.24</ele><time>2012-03-15T17:08:47Z</time></trkpt><trkpt lat="41.632587" lon="2.021067"><ele>918.20</ele><time>2012-03-15T17:08:50Z</time></trkpt><trkpt lat="41.632637" lon="2.021165"><ele>920.60</ele><time>2012-03-15T17:09:01Z</time></trkpt><trkpt lat="41.632751" lon="2.021251"><ele>923.96</ele><time>2012-03-15T17:09:15Z</time></trkpt><trkpt lat="41.632904" lon="2.021245"><ele>926.37</ele><time>2012-03-15T17:09:28Z</time></trkpt><trkpt lat="41.632912" lon="2.021242"><ele>926.85</ele><time>2012-03-15T17:09:29Z</time></trkpt><trkpt lat="41.632996" lon="2.021227"><ele>927.81</ele><time>2012-03-15T17:09:37Z</time></trkpt><trkpt lat="41.633068" lon="2.021199"><ele>927.81</ele><time>2012-03-15T17:09:42Z</time></trkpt><trkpt lat="41.633160" lon="2.021192"><ele>929.73</ele><time>2012-03-15T17:09:48Z</time></trkpt><trkpt lat="41.633175" lon="2.021196"><ele>930.21</ele><time>2012-03-15T17:09:49Z</time></trkpt><trkpt lat="41.633350" lon="2.021205"><ele>933.58</ele><time>2012-03-15T17:10:04Z</time></trkpt><trkpt lat="41.633362" lon="2.021204"><ele>934.54</ele><time>2012-03-15T17:10:05Z</time></trkpt><trkpt lat="41.633595" lon="2.021152"><ele>935.50</ele><time>2012-03-15T17:10:21Z</time></trkpt><trkpt lat="41.633888" lon="2.021122"><ele>938.38</ele><time>2012-03-15T17:10:39Z</time></trkpt><trkpt lat="41.634026" lon="2.021103"><ele>940.31</ele><time>2012-03-15T17:10:50Z</time></trkpt><trkpt lat="41.634041" lon="2.021073"><ele>935.98</ele><time>2012-03-15T17:10:52Z</time></trkpt><trkpt lat="41.634048" lon="2.021055"><ele>938.38</ele><time>2012-03-15T17:10:53Z</time></trkpt><trkpt lat="41.634144" lon="2.020871"><ele>935.98</ele><time>2012-03-15T17:11:01Z</time></trkpt><trkpt lat="41.634373" lon="2.020769"><ele>936.46</ele><time>2012-03-15T17:11:13Z</time></trkpt><trkpt lat="41.634521" lon="2.020725"><ele>936.46</ele><time>2012-03-15T17:11:21Z</time></trkpt><trkpt lat="41.634640" lon="2.020699"><ele>936.94</ele><time>2012-03-15T17:11:27Z</time></trkpt><trkpt lat="41.634708" lon="2.020650"><ele>937.42</ele><time>2012-03-15T17:11:34Z</time></trkpt><trkpt lat="41.634739" lon="2.020641"><ele>938.38</ele><time>2012-03-15T17:11:36Z</time></trkpt><trkpt lat="41.634892" lon="2.020617"><ele>940.31</ele><time>2012-03-15T17:11:44Z</time></trkpt><trkpt lat="41.634995" lon="2.020597"><ele>944.15</ele><time>2012-03-15T17:11:51Z</time></trkpt><trkpt lat="41.634998" lon="2.020593"><ele>942.23</ele><time>2012-03-15T17:11:52Z</time></trkpt><trkpt lat="41.635017" lon="2.020573"><ele>943.67</ele><time>2012-03-15T17:11:53Z</time></trkpt><trkpt lat="41.635033" lon="2.020533"><ele>944.63</ele><time>2012-03-15T17:11:57Z</time></trkpt><trkpt lat="41.635082" lon="2.020420"><ele>946.07</ele><time>2012-03-15T17:12:04Z</time></trkpt><trkpt lat="41.635139" lon="2.020361"><ele>948.00</ele><time>2012-03-15T17:12:07Z</time></trkpt><trkpt lat="41.635197" lon="2.020301"><ele>951.36</ele><time>2012-03-15T17:12:15Z</time></trkpt><trkpt lat="41.635216" lon="2.020288"><ele>951.84</ele><time>2012-03-15T17:12:17Z</time></trkpt><trkpt lat="41.635292" lon="2.020271"><ele>954.25</ele><time>2012-03-15T17:12:24Z</time></trkpt><trkpt lat="41.635330" lon="2.020265"><ele>956.17</ele><time>2012-03-15T17:12:37Z</time></trkpt><trkpt lat="41.635372" lon="2.020273"><ele>960.01</ele><time>2012-03-15T17:12:49Z</time></trkpt><trkpt lat="41.635387" lon="2.020292"><ele>962.42</ele><time>2012-03-15T17:13:01Z</time></trkpt><trkpt lat="41.635395" lon="2.020256"><ele>965.30</ele><time>2012-03-15T17:13:14Z</time></trkpt><trkpt lat="41.635384" lon="2.020039"><ele>966.74</ele><time>2012-03-15T17:13:27Z</time></trkpt><trkpt lat="41.635422" lon="2.019953"><ele>967.22</ele><time>2012-03-15T17:13:33Z</time></trkpt><trkpt lat="41.635468" lon="2.019926"><ele>969.15</ele><time>2012-03-15T17:13:37Z</time></trkpt><trkpt lat="41.635563" lon="2.019897"><ele>970.59</ele><time>2012-03-15T17:13:45Z</time></trkpt><trkpt lat="41.635590" lon="2.019893"><ele>971.55</ele><time>2012-03-15T17:13:47Z</time></trkpt><trkpt lat="41.635723" lon="2.019851"><ele>974.43</ele><time>2012-03-15T17:14:03Z</time></trkpt><trkpt lat="41.635830" lon="2.019757"><ele>977.32</ele><time>2012-03-15T17:14:17Z</time></trkpt><trkpt lat="41.635941" lon="2.019702"><ele>980.68</ele><time>2012-03-15T17:14:28Z</time></trkpt><trkpt lat="41.635944" lon="2.019705"><ele>980.68</ele><time>2012-03-15T17:14:30Z</time></trkpt><trkpt lat="41.635963" lon="2.019704"><ele>981.16</ele><time>2012-03-15T17:14:32Z</time></trkpt><trkpt lat="41.636055" lon="2.019644"><ele>982.12</ele><time>2012-03-15T17:14:39Z</time></trkpt><trkpt lat="41.636127" lon="2.019604"><ele>983.57</ele><time>2012-03-15T17:14:44Z</time></trkpt><trkpt lat="41.636345" lon="2.019621"><ele>982.60</ele><time>2012-03-15T17:14:57Z</time></trkpt><trkpt lat="41.636578" lon="2.019667"><ele>984.53</ele><time>2012-03-15T17:15:09Z</time></trkpt><trkpt lat="41.636631" lon="2.019671"><ele>987.41</ele><time>2012-03-15T17:15:13Z</time></trkpt><trkpt lat="41.636711" lon="2.019723"><ele>986.45</ele><time>2012-03-15T17:15:21Z</time></trkpt><trkpt lat="41.636784" lon="2.019758"><ele>988.85</ele><time>2012-03-15T17:15:25Z</time></trkpt><trkpt lat="41.636845" lon="2.019779"><ele>989.33</ele><time>2012-03-15T17:15:29Z</time></trkpt><trkpt lat="41.636909" lon="2.019771"><ele>990.78</ele><time>2012-03-15T17:15:33Z</time></trkpt><trkpt lat="41.636955" lon="2.019743"><ele>992.22</ele><time>2012-03-15T17:15:36Z</time></trkpt><trkpt lat="41.637093" lon="2.019772"><ele>995.58</ele><time>2012-03-15T17:15:46Z</time></trkpt><trkpt lat="41.637104" lon="2.019774"><ele>994.62</ele><time>2012-03-15T17:15:47Z</time></trkpt><trkpt lat="41.637150" lon="2.019859"><ele>996.54</ele><time>2012-03-15T17:15:49Z</time></trkpt><trkpt lat="41.637249" lon="2.019930"><ele>997.99</ele><time>2012-03-15T17:15:56Z</time></trkpt><trkpt lat="41.637314" lon="2.019989"><ele>999.91</ele><time>2012-03-15T17:16:01Z</time></trkpt><trkpt lat="41.637444" lon="2.020020"><ele>1001.83</ele><time>2012-03-15T17:16:13Z</time></trkpt><trkpt lat="41.637577" lon="2.020083"><ele>1001.83</ele><time>2012-03-15T17:16:24Z</time></trkpt><trkpt lat="41.637650" lon="2.020111"><ele>1000.87</ele><time>2012-03-15T17:16:29Z</time></trkpt><trkpt lat="41.637661" lon="2.020121"><ele>1002.79</ele><time>2012-03-15T17:16:30Z</time></trkpt><trkpt lat="41.637856" lon="2.020220"><ele>998.95</ele><time>2012-03-15T17:16:41Z</time></trkpt><trkpt lat="41.638031" lon="2.020286"><ele>1002.31</ele><time>2012-03-15T17:16:47Z</time></trkpt><trkpt lat="41.638218" lon="2.020334"><ele>1003.75</ele><time>2012-03-15T17:16:59Z</time></trkpt><trkpt lat="41.638420" lon="2.020389"><ele>1007.12</ele><time>2012-03-15T17:17:11Z</time></trkpt><trkpt lat="41.638653" lon="2.020477"><ele>1010.00</ele><time>2012-03-15T17:17:24Z</time></trkpt><trkpt lat="41.638725" lon="2.020487"><ele>1010.96</ele><time>2012-03-15T17:17:28Z</time></trkpt><trkpt lat="41.638885" lon="2.020524"><ele>1014.33</ele><time>2012-03-15T17:17:39Z</time></trkpt><trkpt lat="41.638985" lon="2.020611"><ele>1015.77</ele><time>2012-03-15T17:17:49Z</time></trkpt><trkpt lat="41.639019" lon="2.020620"><ele>1017.21</ele><time>2012-03-15T17:17:52Z</time></trkpt><trkpt lat="41.639065" lon="2.020668"><ele>1017.69</ele><time>2012-03-15T17:17:56Z</time></trkpt><trkpt lat="41.639153" lon="2.020738"><ele>1017.69</ele><time>2012-03-15T17:18:03Z</time></trkpt><trkpt lat="41.639225" lon="2.020763"><ele>1020.10</ele><time>2012-03-15T17:18:10Z</time></trkpt><trkpt lat="41.639236" lon="2.020771"><ele>1020.10</ele><time>2012-03-15T17:18:11Z</time></trkpt><trkpt lat="41.639267" lon="2.020782"><ele>1021.06</ele><time>2012-03-15T17:18:14Z</time></trkpt><trkpt lat="41.639370" lon="2.020790"><ele>1022.98</ele><time>2012-03-15T17:18:23Z</time></trkpt><trkpt lat="41.639568" lon="2.020820"><ele>1025.86</ele><time>2012-03-15T17:18:39Z</time></trkpt><trkpt lat="41.639668" lon="2.020820"><ele>1028.27</ele><time>2012-03-15T17:18:48Z</time></trkpt><trkpt lat="41.639851" lon="2.020895"><ele>1029.71</ele><time>2012-03-15T17:19:03Z</time></trkpt><trkpt lat="41.639870" lon="2.020898"><ele>1026.34</ele><time>2012-03-15T17:19:04Z</time></trkpt><trkpt lat="41.639931" lon="2.020885"><ele>1030.19</ele><time>2012-03-15T17:19:07Z</time></trkpt><trkpt lat="41.640038" lon="2.020848"><ele>1029.23</ele><time>2012-03-15T17:19:12Z</time></trkpt><trkpt lat="41.640324" lon="2.020762"><ele>1029.23</ele><time>2012-03-15T17:19:25Z</time></trkpt><trkpt lat="41.640659" lon="2.020716"><ele>1030.19</ele><time>2012-03-15T17:19:40Z</time></trkpt><trkpt lat="41.640720" lon="2.020722"><ele>1033.55</ele><time>2012-03-15T17:19:44Z</time></trkpt><trkpt lat="41.640732" lon="2.020715"><ele>1033.07</ele><time>2012-03-15T17:19:45Z</time></trkpt><trkpt lat="41.640762" lon="2.020684"><ele>1033.55</ele><time>2012-03-15T17:19:48Z</time></trkpt><trkpt lat="41.640793" lon="2.020654"><ele>1035.00</ele><time>2012-03-15T17:19:51Z</time></trkpt><trkpt lat="41.640804" lon="2.020639"><ele>1035.48</ele><time>2012-03-15T17:19:54Z</time></trkpt><trkpt lat="41.640846" lon="2.020527"><ele>1038.84</ele><time>2012-03-15T17:20:05Z</time></trkpt><trkpt lat="41.640831" lon="2.020518"><ele>1040.76</ele><time>2012-03-15T17:20:09Z</time></trkpt><trkpt lat="41.640774" lon="2.020485"><ele>1042.21</ele><time>2012-03-15T17:20:15Z</time></trkpt><trkpt lat="41.640755" lon="2.020463"><ele>1043.17</ele><time>2012-03-15T17:20:18Z</time></trkpt><trkpt lat="41.640675" lon="2.020398"><ele>1046.05</ele><time>2012-03-15T17:20:33Z</time></trkpt><trkpt lat="41.640656" lon="2.020401"><ele>1046.53</ele><time>2012-03-15T17:20:35Z</time></trkpt><trkpt lat="41.640553" lon="2.020393"><ele>1048.94</ele><time>2012-03-15T17:20:49Z</time></trkpt><trkpt lat="41.640511" lon="2.020369"><ele>1049.90</ele><time>2012-03-15T17:20:55Z</time></trkpt><trkpt lat="41.640507" lon="2.020348"><ele>1052.30</ele><time>2012-03-15T17:21:06Z</time></trkpt><trkpt lat="41.640480" lon="2.020397"><ele>1052.78</ele><time>2012-03-15T17:21:11Z</time></trkpt><trkpt lat="41.640415" lon="2.020346"><ele>1057.11</ele><time>2012-03-15T17:21:26Z</time></trkpt><trkpt lat="41.640408" lon="2.020271"><ele>1060.47</ele><time>2012-03-15T17:21:39Z</time></trkpt><trkpt lat="41.640373" lon="2.020199"><ele>1063.36</ele><time>2012-03-15T17:21:53Z</time></trkpt><trkpt lat="41.640331" lon="2.020108"><ele>1065.76</ele><time>2012-03-15T17:22:05Z</time></trkpt><trkpt lat="41.640442" lon="2.019965"><ele>1069.12</ele><time>2012-03-15T17:22:21Z</time></trkpt><trkpt lat="41.640453" lon="2.019948"><ele>1070.08</ele><time>2012-03-15T17:22:23Z</time></trkpt><trkpt lat="41.640450" lon="2.019922"><ele>1070.57</ele><time>2012-03-15T17:22:25Z</time></trkpt><trkpt lat="41.640423" lon="2.019786"><ele>1072.97</ele><time>2012-03-15T17:22:38Z</time></trkpt><trkpt lat="41.640507" lon="2.019670"><ele>1076.33</ele><time>2012-03-15T17:22:51Z</time></trkpt><trkpt lat="41.640511" lon="2.019658"><ele>1076.81</ele><time>2012-03-15T17:22:52Z</time></trkpt><trkpt lat="41.640514" lon="2.019626"><ele>1077.29</ele><time>2012-03-15T17:22:55Z</time></trkpt><trkpt lat="41.640530" lon="2.019591"><ele>1077.29</ele><time>2012-03-15T17:22:58Z</time></trkpt><trkpt lat="41.640553" lon="2.019574"><ele>1078.74</ele><time>2012-03-15T17:23:00Z</time></trkpt><trkpt lat="41.640591" lon="2.019548"><ele>1079.70</ele><time>2012-03-15T17:23:05Z</time></trkpt><trkpt lat="41.640602" lon="2.019514"><ele>1079.70</ele><time>2012-03-15T17:23:09Z</time></trkpt><trkpt lat="41.640678" lon="2.019430"><ele>1082.58</ele><time>2012-03-15T17:23:18Z</time></trkpt><trkpt lat="41.640686" lon="2.019407"><ele>1083.06</ele><time>2012-03-15T17:23:20Z</time></trkpt><trkpt lat="41.640724" lon="2.019365"><ele>1084.02</ele><time>2012-03-15T17:23:24Z</time></trkpt><trkpt lat="41.640823" lon="2.019231"><ele>1086.43</ele><time>2012-03-15T17:23:36Z</time></trkpt><trkpt lat="41.640839" lon="2.019154"><ele>1088.35</ele><time>2012-03-15T17:23:41Z</time></trkpt><trkpt lat="41.640869" lon="2.019072"><ele>1089.31</ele><time>2012-03-15T17:23:47Z</time></trkpt><trkpt lat="41.640987" lon="2.018819"><ele>1091.23</ele><time>2012-03-15T17:24:02Z</time></trkpt><trkpt lat="41.641079" lon="2.018611"><ele>1093.64</ele><time>2012-03-15T17:24:16Z</time></trkpt><trkpt lat="41.641205" lon="2.018447"><ele>1096.52</ele><time>2012-03-15T17:24:31Z</time></trkpt><trkpt lat="41.641281" lon="2.018316"><ele>1099.40</ele><time>2012-03-15T17:24:43Z</time></trkpt><trkpt lat="41.641285" lon="2.018293"><ele>1100.37</ele><time>2012-03-15T17:24:45Z</time></trkpt><trkpt lat="41.641285" lon="2.018226"><ele>1099.40</ele><time>2012-03-15T17:25:01Z</time></trkpt><trkpt lat="41.641281" lon="2.018234"><ele>1099.89</ele><time>2012-03-15T17:25:15Z</time></trkpt><trkpt lat="41.641281" lon="2.018234"><ele>1099.40</ele><time>2012-03-15T17:25:21Z</time></trkpt><trkpt lat="41.641281" lon="2.018237"><ele>1097.00</ele><time>2012-03-15T17:25:43Z</time></trkpt><trkpt lat="41.641281" lon="2.018237"><ele>1101.33</ele><time>2012-03-15T17:25:45Z</time></trkpt><trkpt lat="41.641281" lon="2.018237"><ele>1099.89</ele><time>2012-03-15T17:25:46Z</time></trkpt><trkpt lat="41.641281" lon="2.018239"><ele>1099.40</ele><time>2012-03-15T17:26:15Z</time></trkpt><trkpt lat="41.641281" lon="2.018239"><ele>1096.04</ele><time>2012-03-15T17:26:31Z</time></trkpt><trkpt lat="41.641281" lon="2.018239"><ele>1099.40</ele><time>2012-03-15T17:26:33Z</time></trkpt><trkpt lat="41.641281" lon="2.018239"><ele>1102.77</ele><time>2012-03-15T17:26:38Z</time></trkpt><trkpt lat="41.641281" lon="2.018239"><ele>1102.77</ele><time>2012-03-15T17:26:39Z</time></trkpt><trkpt lat="41.641281" lon="2.018239"><ele>1098.44</ele><time>2012-03-15T17:26:40Z</time></trkpt><trkpt lat="41.641285" lon="2.018238"><ele>1102.29</ele><time>2012-03-15T17:26:52Z</time></trkpt><trkpt lat="41.641285" lon="2.018238"><ele>1098.92</ele><time>2012-03-15T17:26:57Z</time></trkpt><trkpt lat="41.641285" lon="2.018238"><ele>1095.56</ele><time>2012-03-15T17:26:59Z</time></trkpt><trkpt lat="41.641285" lon="2.018238"><ele>1101.33</ele><time>2012-03-15T17:27:00Z</time></trkpt><trkpt lat="41.641285" lon="2.018238"><ele>1097.00</ele><time>2012-03-15T17:27:02Z</time></trkpt><trkpt lat="41.641277" lon="2.018268"><ele>1099.89</ele><time>2012-03-15T17:27:04Z</time></trkpt><trkpt lat="41.641193" lon="2.018447"><ele>1095.08</ele><time>2012-03-15T17:27:11Z</time></trkpt><trkpt lat="41.641079" lon="2.018610"><ele>1092.20</ele><time>2012-03-15T17:27:19Z</time></trkpt><trkpt lat="41.641064" lon="2.018636"><ele>1088.83</ele><time>2012-03-15T17:27:20Z</time></trkpt><trkpt lat="41.641048" lon="2.018666"><ele>1090.27</ele><time>2012-03-15T17:27:21Z</time></trkpt><trkpt lat="41.640846" lon="2.019056"><ele>1088.35</ele><time>2012-03-15T17:27:34Z</time></trkpt><trkpt lat="41.640812" lon="2.019141"><ele>1085.47</ele><time>2012-03-15T17:27:37Z</time></trkpt><trkpt lat="41.640762" lon="2.019248"><ele>1084.02</ele><time>2012-03-15T17:27:41Z</time></trkpt><trkpt lat="41.640701" lon="2.019392"><ele>1081.62</ele><time>2012-03-15T17:27:47Z</time></trkpt><trkpt lat="41.640667" lon="2.019470"><ele>1080.18</ele><time>2012-03-15T17:27:50Z</time></trkpt><trkpt lat="41.640625" lon="2.019553"><ele>1076.33</ele><time>2012-03-15T17:27:54Z</time></trkpt><trkpt lat="41.640541" lon="2.019692"><ele>1072.49</ele><time>2012-03-15T17:28:01Z</time></trkpt><trkpt lat="41.640484" lon="2.019795"><ele>1069.12</ele><time>2012-03-15T17:28:08Z</time></trkpt><trkpt lat="41.640400" lon="2.019895"><ele>1067.20</ele><time>2012-03-15T17:28:14Z</time></trkpt><trkpt lat="41.640385" lon="2.019965"><ele>1064.32</ele><time>2012-03-15T17:28:19Z</time></trkpt><trkpt lat="41.640335" lon="2.020066"><ele>1060.47</ele><time>2012-03-15T17:28:26Z</time></trkpt><trkpt lat="41.640316" lon="2.020165"><ele>1055.67</ele><time>2012-03-15T17:28:35Z</time></trkpt><trkpt lat="41.640316" lon="2.020174"><ele>1056.15</ele><time>2012-03-15T17:28:36Z</time></trkpt><trkpt lat="41.640331" lon="2.020201"><ele>1054.22</ele><time>2012-03-15T17:28:40Z</time></trkpt><trkpt lat="41.640350" lon="2.020225"><ele>1053.26</ele><time>2012-03-15T17:28:41Z</time></trkpt><trkpt lat="41.640388" lon="2.020274"><ele>1051.82</ele><time>2012-03-15T17:28:46Z</time></trkpt><trkpt lat="41.640419" lon="2.020309"><ele>1048.94</ele><time>2012-03-15T17:28:49Z</time></trkpt><trkpt lat="41.640518" lon="2.020350"><ele>1046.05</ele><time>2012-03-15T17:28:57Z</time></trkpt><trkpt lat="41.640522" lon="2.020340"><ele>1046.53</ele><time>2012-03-15T17:28:58Z</time></trkpt><trkpt lat="41.640530" lon="2.020329"><ele>1042.69</ele><time>2012-03-15T17:29:03Z</time></trkpt><trkpt lat="41.640530" lon="2.020328"><ele>1043.65</ele><time>2012-03-15T17:29:04Z</time></trkpt><trkpt lat="41.640541" lon="2.020342"><ele>1042.21</ele><time>2012-03-15T17:29:07Z</time></trkpt><trkpt lat="41.640633" lon="2.020378"><ele>1037.88</ele><time>2012-03-15T17:29:12Z</time></trkpt><trkpt lat="41.640678" lon="2.020417"><ele>1036.44</ele><time>2012-03-15T17:29:16Z</time></trkpt><trkpt lat="41.640858" lon="2.020498"><ele>1033.55</ele><time>2012-03-15T17:29:25Z</time></trkpt><trkpt lat="41.640888" lon="2.020574"><ele>1030.19</ele><time>2012-03-15T17:29:31Z</time></trkpt><trkpt lat="41.640892" lon="2.020591"><ele>1030.19</ele><time>2012-03-15T17:29:32Z</time></trkpt><trkpt lat="41.640823" lon="2.020657"><ele>1026.83</ele><time>2012-03-15T17:29:38Z</time></trkpt><trkpt lat="41.640816" lon="2.020675"><ele>1026.83</ele><time>2012-03-15T17:29:39Z</time></trkpt><trkpt lat="41.640709" lon="2.020734"><ele>1026.83</ele><time>2012-03-15T17:29:43Z</time></trkpt><trkpt lat="41.640377" lon="2.020790"><ele>1027.31</ele><time>2012-03-15T17:29:55Z</time></trkpt><trkpt lat="41.640114" lon="2.020853"><ele>1026.83</ele><time>2012-03-15T17:30:06Z</time></trkpt><trkpt lat="41.639767" lon="2.020907"><ele>1026.34</ele><time>2012-03-15T17:30:18Z</time></trkpt><trkpt lat="41.639633" lon="2.020911"><ele>1022.50</ele><time>2012-03-15T17:30:25Z</time></trkpt><trkpt lat="41.639614" lon="2.020917"><ele>1022.50</ele><time>2012-03-15T17:30:26Z</time></trkpt><trkpt lat="41.639477" lon="2.020854"><ele>1019.13</ele><time>2012-03-15T17:30:34Z</time></trkpt><trkpt lat="41.639397" lon="2.020835"><ele>1018.65</ele><time>2012-03-15T17:30:38Z</time></trkpt><trkpt lat="41.639282" lon="2.020853"><ele>1014.33</ele><time>2012-03-15T17:30:44Z</time></trkpt><trkpt lat="41.639267" lon="2.020856"><ele>1015.29</ele><time>2012-03-15T17:30:45Z</time></trkpt><trkpt lat="41.639153" lon="2.020833"><ele>1011.93</ele><time>2012-03-15T17:30:51Z</time></trkpt><trkpt lat="41.638889" lon="2.020614"><ele>1010.48</ele><time>2012-03-15T17:31:04Z</time></trkpt><trkpt lat="41.638618" lon="2.020544"><ele>1006.64</ele><time>2012-03-15T17:31:15Z</time></trkpt><trkpt lat="41.638428" lon="2.020477"><ele>1002.79</ele><time>2012-03-15T17:31:24Z</time></trkpt><trkpt lat="41.638329" lon="2.020410"><ele>1002.31</ele><time>2012-03-15T17:31:30Z</time></trkpt><trkpt lat="41.638252" lon="2.020383"><ele>1000.87</ele><time>2012-03-15T17:31:33Z</time></trkpt><trkpt lat="41.637947" lon="2.020294"><ele>997.99</ele><time>2012-03-15T17:31:45Z</time></trkpt><trkpt lat="41.637676" lon="2.020149"><ele>1001.35</ele><time>2012-03-15T17:31:56Z</time></trkpt><trkpt lat="41.637611" lon="2.020105"><ele>998.95</ele><time>2012-03-15T17:31:59Z</time></trkpt><trkpt lat="41.637573" lon="2.020078"><ele>1001.35</ele><time>2012-03-15T17:32:01Z</time></trkpt><trkpt lat="41.637310" lon="2.019988"><ele>997.02</ele><time>2012-03-15T17:32:12Z</time></trkpt><trkpt lat="41.637299" lon="2.019981"><ele>997.02</ele><time>2012-03-15T17:32:13Z</time></trkpt><trkpt lat="41.637173" lon="2.019918"><ele>994.14</ele><time>2012-03-15T17:32:21Z</time></trkpt><trkpt lat="41.637081" lon="2.019839"><ele>989.81</ele><time>2012-03-15T17:32:28Z</time></trkpt><trkpt lat="41.636993" lon="2.019795"><ele>988.85</ele><time>2012-03-15T17:32:33Z</time></trkpt><trkpt lat="41.636883" lon="2.019765"><ele>985.49</ele><time>2012-03-15T17:32:38Z</time></trkpt><trkpt lat="41.636627" lon="2.019701"><ele>983.09</ele><time>2012-03-15T17:32:49Z</time></trkpt><trkpt lat="41.636608" lon="2.019694"><ele>982.60</ele><time>2012-03-15T17:32:50Z</time></trkpt><trkpt lat="41.636246" lon="2.019605"><ele>980.20</ele><time>2012-03-15T17:33:02Z</time></trkpt><trkpt lat="41.636196" lon="2.019603"><ele>979.72</ele><time>2012-03-15T17:33:04Z</time></trkpt><trkpt lat="41.636108" lon="2.019621"><ele>979.72</ele><time>2012-03-15T17:33:09Z</time></trkpt><trkpt lat="41.636032" lon="2.019686"><ele>977.32</ele><time>2012-03-15T17:33:15Z</time></trkpt><trkpt lat="41.635952" lon="2.019733"><ele>974.91</ele><time>2012-03-15T17:33:20Z</time></trkpt><trkpt lat="41.635860" lon="2.019770"><ele>971.55</ele><time>2012-03-15T17:33:25Z</time></trkpt><trkpt lat="41.635841" lon="2.019782"><ele>972.03</ele><time>2012-03-15T17:33:26Z</time></trkpt><trkpt lat="41.635731" lon="2.019846"><ele>969.15</ele><time>2012-03-15T17:33:32Z</time></trkpt><trkpt lat="41.635719" lon="2.019864"><ele>967.22</ele><time>2012-03-15T17:33:33Z</time></trkpt><trkpt lat="41.635651" lon="2.019894"><ele>966.26</ele><time>2012-03-15T17:33:37Z</time></trkpt><trkpt lat="41.635509" lon="2.019933"><ele>965.30</ele><time>2012-03-15T17:33:42Z</time></trkpt><trkpt lat="41.635441" lon="2.019982"><ele>964.34</ele><time>2012-03-15T17:33:45Z</time></trkpt><trkpt lat="41.635380" lon="2.020026"><ele>961.94</ele><time>2012-03-15T17:33:48Z</time></trkpt><trkpt lat="41.635391" lon="2.020115"><ele>961.94</ele><time>2012-03-15T17:33:52Z</time></trkpt><trkpt lat="41.635433" lon="2.020201"><ele>960.01</ele><time>2012-03-15T17:33:57Z</time></trkpt><trkpt lat="41.635426" lon="2.020283"><ele>958.57</ele><time>2012-03-15T17:34:03Z</time></trkpt><trkpt lat="41.635384" lon="2.020275"><ele>957.13</ele><time>2012-03-15T17:34:07Z</time></trkpt><trkpt lat="41.635281" lon="2.020257"><ele>952.80</ele><time>2012-03-15T17:34:16Z</time></trkpt><trkpt lat="41.635246" lon="2.020239"><ele>949.92</ele><time>2012-03-15T17:34:19Z</time></trkpt><trkpt lat="41.635231" lon="2.020235"><ele>951.84</ele><time>2012-03-15T17:34:20Z</time></trkpt><trkpt lat="41.635174" lon="2.020273"><ele>948.48</ele><time>2012-03-15T17:34:26Z</time></trkpt><trkpt lat="41.635170" lon="2.020291"><ele>948.48</ele><time>2012-03-15T17:34:27Z</time></trkpt><trkpt lat="41.635143" lon="2.020327"><ele>946.56</ele><time>2012-03-15T17:34:30Z</time></trkpt><trkpt lat="41.635105" lon="2.020393"><ele>944.63</ele><time>2012-03-15T17:34:37Z</time></trkpt><trkpt lat="41.635036" lon="2.020493"><ele>942.23</ele><time>2012-03-15T17:34:44Z</time></trkpt><trkpt lat="41.635010" lon="2.020552"><ele>940.79</ele><time>2012-03-15T17:34:48Z</time></trkpt><trkpt lat="41.634949" lon="2.020568"><ele>938.38</ele><time>2012-03-15T17:34:52Z</time></trkpt><trkpt lat="41.634880" lon="2.020560"><ele>936.94</ele><time>2012-03-15T17:34:54Z</time></trkpt><trkpt lat="41.634693" lon="2.020698"><ele>935.98</ele><time>2012-03-15T17:35:03Z</time></trkpt><trkpt lat="41.634583" lon="2.020740"><ele>936.94</ele><time>2012-03-15T17:35:09Z</time></trkpt><trkpt lat="41.634468" lon="2.020785"><ele>935.98</ele><time>2012-03-15T17:35:14Z</time></trkpt><trkpt lat="41.634422" lon="2.020798"><ele>935.02</ele><time>2012-03-15T17:35:16Z</time></trkpt><trkpt lat="41.634151" lon="2.020971"><ele>936.46</ele><time>2012-03-15T17:35:27Z</time></trkpt><trkpt lat="41.634079" lon="2.021040"><ele>936.46</ele><time>2012-03-15T17:35:31Z</time></trkpt><trkpt lat="41.633797" lon="2.021157"><ele>938.38</ele><time>2012-03-15T17:35:43Z</time></trkpt><trkpt lat="41.633770" lon="2.021162"><ele>934.54</ele><time>2012-03-15T17:35:44Z</time></trkpt><trkpt lat="41.633476" lon="2.021127"><ele>930.21</ele><time>2012-03-15T17:35:57Z</time></trkpt><trkpt lat="41.633213" lon="2.021244"><ele>929.25</ele><time>2012-03-15T17:36:08Z</time></trkpt><trkpt lat="41.633175" lon="2.021236"><ele>928.29</ele><time>2012-03-15T17:36:10Z</time></trkpt><trkpt lat="41.633110" lon="2.021231"><ele>926.37</ele><time>2012-03-15T17:36:13Z</time></trkpt><trkpt lat="41.632973" lon="2.021260"><ele>924.45</ele><time>2012-03-15T17:36:19Z</time></trkpt><trkpt lat="41.632812" lon="2.021281"><ele>923.00</ele><time>2012-03-15T17:36:26Z</time></trkpt><trkpt lat="41.632744" lon="2.021253"><ele>918.68</ele><time>2012-03-15T17:36:30Z</time></trkpt><trkpt lat="41.632690" lon="2.021216"><ele>917.72</ele><time>2012-03-15T17:36:34Z</time></trkpt><trkpt lat="41.632568" lon="2.021073"><ele>913.87</ele><time>2012-03-15T17:36:42Z</time></trkpt><trkpt lat="41.632450" lon="2.020937"><ele>909.06</ele><time>2012-03-15T17:36:50Z</time></trkpt><trkpt lat="41.632431" lon="2.020925"><ele>910.03</ele><time>2012-03-15T17:36:51Z</time></trkpt><trkpt lat="41.632305" lon="2.020744"><ele>907.14</ele><time>2012-03-15T17:36:59Z</time></trkpt><trkpt lat="41.632271" lon="2.020641"><ele>905.22</ele><time>2012-03-15T17:37:03Z</time></trkpt><trkpt lat="41.632084" lon="2.020481"><ele>901.85</ele><time>2012-03-15T17:37:14Z</time></trkpt><trkpt lat="41.631973" lon="2.020414"><ele>898.97</ele><time>2012-03-15T17:37:20Z</time></trkpt><trkpt lat="41.631897" lon="2.020356"><ele>896.57</ele><time>2012-03-15T17:37:26Z</time></trkpt><trkpt lat="41.631851" lon="2.020302"><ele>893.20</ele><time>2012-03-15T17:37:30Z</time></trkpt><trkpt lat="41.631691" lon="2.020218"><ele>888.88</ele><time>2012-03-15T17:37:39Z</time></trkpt><trkpt lat="41.631680" lon="2.020203"><ele>890.80</ele><time>2012-03-15T17:37:40Z</time></trkpt><trkpt lat="41.631626" lon="2.020169"><ele>889.84</ele><time>2012-03-15T17:37:43Z</time></trkpt><trkpt lat="41.631554" lon="2.020121"><ele>887.91</ele><time>2012-03-15T17:37:46Z</time></trkpt><trkpt lat="41.631447" lon="2.020053"><ele>888.40</ele><time>2012-03-15T17:37:50Z</time></trkpt><trkpt lat="41.631084" lon="2.019922"><ele>886.47</ele><time>2012-03-15T17:38:03Z</time></trkpt><trkpt lat="41.630775" lon="2.019739"><ele>883.59</ele><time>2012-03-15T17:38:14Z</time></trkpt><trkpt lat="41.630749" lon="2.019733"><ele>883.11</ele><time>2012-03-15T17:38:15Z</time></trkpt><trkpt lat="41.630653" lon="2.019729"><ele>880.22</ele><time>2012-03-15T17:38:19Z</time></trkpt><trkpt lat="41.630394" lon="2.019577"><ele>875.90</ele><time>2012-03-15T17:38:31Z</time></trkpt><trkpt lat="41.630325" lon="2.019595"><ele>874.46</ele><time>2012-03-15T17:38:36Z</time></trkpt><trkpt lat="41.630180" lon="2.019636"><ele>871.09</ele><time>2012-03-15T17:38:43Z</time></trkpt><trkpt lat="41.629848" lon="2.019629"><ele>870.13</ele><time>2012-03-15T17:38:57Z</time></trkpt><trkpt lat="41.629612" lon="2.019669"><ele>868.69</ele><time>2012-03-15T17:39:09Z</time></trkpt><trkpt lat="41.629543" lon="2.019725"><ele>863.88</ele><time>2012-03-15T17:39:20Z</time></trkpt><trkpt lat="41.629536" lon="2.019737"><ele>864.36</ele><time>2012-03-15T17:39:21Z</time></trkpt><trkpt lat="41.629513" lon="2.019780"><ele>862.44</ele><time>2012-03-15T17:39:25Z</time></trkpt><trkpt lat="41.629486" lon="2.019859"><ele>860.04</ele><time>2012-03-15T17:39:30Z</time></trkpt><trkpt lat="41.629456" lon="2.019901"><ele>858.59</ele><time>2012-03-15T17:39:33Z</time></trkpt><trkpt lat="41.629448" lon="2.019944"><ele>856.19</ele><time>2012-03-15T17:39:39Z</time></trkpt><trkpt lat="41.629452" lon="2.020008"><ele>852.35</ele><time>2012-03-15T17:39:48Z</time></trkpt><trkpt lat="41.629452" lon="2.020008"><ele>852.83</ele><time>2012-03-15T17:39:49Z</time></trkpt><trkpt lat="41.629459" lon="2.020048"><ele>848.98</ele><time>2012-03-15T17:39:57Z</time></trkpt><trkpt lat="41.629459" lon="2.020048"><ele>847.54</ele><time>2012-03-15T17:40:00Z</time></trkpt><trkpt lat="41.629471" lon="2.020115"><ele>845.62</ele><time>2012-03-15T17:40:04Z</time></trkpt><trkpt lat="41.629471" lon="2.020164"><ele>846.10</ele><time>2012-03-15T17:40:06Z</time></trkpt><trkpt lat="41.629478" lon="2.020176"><ele>845.62</ele><time>2012-03-15T17:40:08Z</time></trkpt><trkpt lat="41.629528" lon="2.020236"><ele>841.77</ele><time>2012-03-15T17:40:18Z</time></trkpt><trkpt lat="41.629532" lon="2.020242"><ele>841.29</ele><time>2012-03-15T17:40:19Z</time></trkpt><trkpt lat="41.629578" lon="2.020289"><ele>839.37</ele><time>2012-03-15T17:40:25Z</time></trkpt><trkpt lat="41.629597" lon="2.020329"><ele>837.93</ele><time>2012-03-15T17:40:28Z</time></trkpt><trkpt lat="41.629601" lon="2.020337"><ele>834.56</ele><time>2012-03-15T17:40:37Z</time></trkpt><trkpt lat="41.629616" lon="2.020382"><ele>833.60</ele><time>2012-03-15T17:40:40Z</time></trkpt><trkpt lat="41.629639" lon="2.020440"><ele>831.68</ele><time>2012-03-15T17:40:45Z</time></trkpt><trkpt lat="41.629646" lon="2.020455"><ele>832.16</ele><time>2012-03-15T17:40:46Z</time></trkpt><trkpt lat="41.629681" lon="2.020555"><ele>827.83</ele><time>2012-03-15T17:40:56Z</time></trkpt><trkpt lat="41.629688" lon="2.020578"><ele>827.83</ele><time>2012-03-15T17:40:57Z</time></trkpt><trkpt lat="41.629692" lon="2.020653"><ele>824.47</ele><time>2012-03-15T17:41:04Z</time></trkpt><trkpt lat="41.629711" lon="2.020655"><ele>823.03</ele><time>2012-03-15T17:41:10Z</time></trkpt><trkpt lat="41.629734" lon="2.020670"><ele>822.55</ele><time>2012-03-15T17:41:12Z</time></trkpt><trkpt lat="41.629753" lon="2.020702"><ele>821.10</ele><time>2012-03-15T17:41:15Z</time></trkpt><trkpt lat="41.629776" lon="2.020759"><ele>819.18</ele><time>2012-03-15T17:41:19Z</time></trkpt><trkpt lat="41.629768" lon="2.020815"><ele>818.22</ele><time>2012-03-15T17:41:23Z</time></trkpt><trkpt lat="41.629559" lon="2.020804"><ele>817.26</ele><time>2012-03-15T17:41:35Z</time></trkpt><trkpt lat="41.629375" lon="2.020750"><ele>815.82</ele><time>2012-03-15T17:41:48Z</time></trkpt><trkpt lat="41.629307" lon="2.020751"><ele>812.45</ele><time>2012-03-15T17:41:55Z</time></trkpt><trkpt lat="41.629272" lon="2.020745"><ele>811.01</ele><time>2012-03-15T17:41:59Z</time></trkpt><trkpt lat="41.629261" lon="2.020741"><ele>811.01</ele><time>2012-03-15T17:42:01Z</time></trkpt><trkpt lat="41.629177" lon="2.020718"><ele>810.05</ele><time>2012-03-15T17:42:06Z</time></trkpt><trkpt lat="41.629154" lon="2.020733"><ele>807.16</ele><time>2012-03-15T17:42:08Z</time></trkpt><trkpt lat="41.629131" lon="2.020753"><ele>805.24</ele><time>2012-03-15T17:42:10Z</time></trkpt><trkpt lat="41.629116" lon="2.020766"><ele>805.72</ele><time>2012-03-15T17:42:12Z</time></trkpt><trkpt lat="41.629070" lon="2.020792"><ele>804.28</ele><time>2012-03-15T17:42:16Z</time></trkpt><trkpt lat="41.628979" lon="2.020827"><ele>801.40</ele><time>2012-03-15T17:42:22Z</time></trkpt><trkpt lat="41.628922" lon="2.020839"><ele>798.99</ele><time>2012-03-15T17:42:28Z</time></trkpt><trkpt lat="41.628769" lon="2.020907"><ele>795.63</ele><time>2012-03-15T17:42:37Z</time></trkpt><trkpt lat="41.628582" lon="2.020949"><ele>791.30</ele><time>2012-03-15T17:42:48Z</time></trkpt><trkpt lat="41.628567" lon="2.020952"><ele>791.78</ele><time>2012-03-15T17:42:49Z</time></trkpt><trkpt lat="41.628456" lon="2.020906"><ele>788.42</ele><time>2012-03-15T17:42:56Z</time></trkpt><trkpt lat="41.628441" lon="2.020905"><ele>788.42</ele><time>2012-03-15T17:42:57Z</time></trkpt><trkpt lat="41.628391" lon="2.020901"><ele>786.02</ele><time>2012-03-15T17:43:02Z</time></trkpt><trkpt lat="41.628380" lon="2.020935"><ele>784.09</ele><time>2012-03-15T17:43:08Z</time></trkpt><trkpt lat="41.628326" lon="2.020883"><ele>780.73</ele><time>2012-03-15T17:43:16Z</time></trkpt><trkpt lat="41.628235" lon="2.020855"><ele>778.32</ele><time>2012-03-15T17:43:21Z</time></trkpt><trkpt lat="41.628208" lon="2.020857"><ele>778.32</ele><time>2012-03-15T17:43:23Z</time></trkpt><trkpt lat="41.628162" lon="2.020884"><ele>774.96</ele><time>2012-03-15T17:43:26Z</time></trkpt><trkpt lat="41.628040" lon="2.020899"><ele>770.63</ele><time>2012-03-15T17:43:34Z</time></trkpt><trkpt lat="41.628029" lon="2.020908"><ele>771.11</ele><time>2012-03-15T17:43:35Z</time></trkpt><trkpt lat="41.627991" lon="2.020928"><ele>770.15</ele><time>2012-03-15T17:43:38Z</time></trkpt><trkpt lat="41.627827" lon="2.021049"><ele>766.31</ele><time>2012-03-15T17:43:49Z</time></trkpt><trkpt lat="41.627552" lon="2.021228"><ele>762.46</ele><time>2012-03-15T17:44:01Z</time></trkpt><trkpt lat="41.627350" lon="2.021343"><ele>761.50</ele><time>2012-03-15T17:44:15Z</time></trkpt><trkpt lat="41.627331" lon="2.021348"><ele>761.50</ele><time>2012-03-15T17:44:34Z</time></trkpt><trkpt lat="41.627232" lon="2.021340"><ele>759.10</ele><time>2012-03-15T17:44:40Z</time></trkpt><trkpt lat="41.627171" lon="2.021361"><ele>757.18</ele><time>2012-03-15T17:44:43Z</time></trkpt><trkpt lat="41.626888" lon="2.021420"><ele>756.69</ele><time>2012-03-15T17:44:56Z</time></trkpt><trkpt lat="41.626518" lon="2.021447"><ele>755.25</ele><time>2012-03-15T17:45:10Z</time></trkpt><trkpt lat="41.626247" lon="2.021569"><ele>752.37</ele><time>2012-03-15T17:45:23Z</time></trkpt><trkpt lat="41.625820" lon="2.021568"><ele>753.81</ele><time>2012-03-15T17:45:39Z</time></trkpt><trkpt lat="41.625763" lon="2.021546"><ele>754.77</ele><time>2012-03-15T17:45:42Z</time></trkpt><trkpt lat="41.625706" lon="2.021506"><ele>754.29</ele><time>2012-03-15T17:45:46Z</time></trkpt><trkpt lat="41.625607" lon="2.021432"><ele>750.93</ele><time>2012-03-15T17:45:52Z</time></trkpt><trkpt lat="41.625587" lon="2.021418"><ele>751.89</ele><time>2012-03-15T17:45:53Z</time></trkpt><trkpt lat="41.625538" lon="2.021374"><ele>749.49</ele><time>2012-03-15T17:45:56Z</time></trkpt><trkpt lat="41.625481" lon="2.021327"><ele>745.64</ele><time>2012-03-15T17:46:00Z</time></trkpt><trkpt lat="41.625469" lon="2.021321"><ele>747.56</ele><time>2012-03-15T17:46:01Z</time></trkpt><trkpt lat="41.625385" lon="2.021241"><ele>744.20</ele><time>2012-03-15T17:46:06Z</time></trkpt><trkpt lat="41.625366" lon="2.021230"><ele>743.72</ele><time>2012-03-15T17:46:07Z</time></trkpt><trkpt lat="41.625320" lon="2.021209"><ele>742.76</ele><time>2012-03-15T17:46:09Z</time></trkpt><trkpt lat="41.625244" lon="2.021143"><ele>738.91</ele><time>2012-03-15T17:46:14Z</time></trkpt><trkpt lat="41.625229" lon="2.021127"><ele>740.35</ele><time>2012-03-15T17:46:15Z</time></trkpt><trkpt lat="41.625183" lon="2.021083"><ele>736.99</ele><time>2012-03-15T17:46:18Z</time></trkpt><trkpt lat="41.625095" lon="2.020949"><ele>733.62</ele><time>2012-03-15T17:46:25Z</time></trkpt><trkpt lat="41.625080" lon="2.020935"><ele>733.62</ele><time>2012-03-15T17:46:26Z</time></trkpt><trkpt lat="41.625023" lon="2.020873"><ele>730.74</ele><time>2012-03-15T17:46:30Z</time></trkpt><trkpt lat="41.625004" lon="2.020854"><ele>730.74</ele><time>2012-03-15T17:46:31Z</time></trkpt><trkpt lat="41.624874" lon="2.020634"><ele>727.37</ele><time>2012-03-15T17:46:40Z</time></trkpt><trkpt lat="41.624855" lon="2.020600"><ele>726.89</ele><time>2012-03-15T17:46:41Z</time></trkpt><trkpt lat="41.624748" lon="2.020418"><ele>724.01</ele><time>2012-03-15T17:46:47Z</time></trkpt><trkpt lat="41.624565" lon="2.020232"><ele>720.65</ele><time>2012-03-15T17:46:55Z</time></trkpt><trkpt lat="41.624458" lon="2.020142"><ele>717.28</ele><time>2012-03-15T17:47:00Z</time></trkpt><trkpt lat="41.624378" lon="2.020061"><ele>716.32</ele><time>2012-03-15T17:47:04Z</time></trkpt><trkpt lat="41.624275" lon="2.019941"><ele>713.92</ele><time>2012-03-15T17:47:10Z</time></trkpt><trkpt lat="41.624191" lon="2.019927"><ele>710.07</ele><time>2012-03-15T17:47:14Z</time></trkpt><trkpt lat="41.624172" lon="2.019918"><ele>711.99</ele><time>2012-03-15T17:47:15Z</time></trkpt><trkpt lat="41.624069" lon="2.019911"><ele>708.15</ele><time>2012-03-15T17:47:20Z</time></trkpt><trkpt lat="41.624016" lon="2.019928"><ele>704.30</ele><time>2012-03-15T17:47:23Z</time></trkpt><trkpt lat="41.623993" lon="2.019922"><ele>704.30</ele><time>2012-03-15T17:47:24Z</time></trkpt><trkpt lat="41.623878" lon="2.019902"><ele>701.42</ele><time>2012-03-15T17:47:30Z</time></trkpt><trkpt lat="41.623863" lon="2.019901"><ele>701.42</ele><time>2012-03-15T17:47:31Z</time></trkpt><trkpt lat="41.623829" lon="2.019911"><ele>699.98</ele><time>2012-03-15T17:47:33Z</time></trkpt><trkpt lat="41.623772" lon="2.019915"><ele>697.09</ele><time>2012-03-15T17:47:36Z</time></trkpt><trkpt lat="41.623749" lon="2.019915"><ele>697.09</ele><time>2012-03-15T17:47:37Z</time></trkpt><trkpt lat="41.623661" lon="2.019927"><ele>695.65</ele><time>2012-03-15T17:47:42Z</time></trkpt><trkpt lat="41.623627" lon="2.019929"><ele>694.69</ele><time>2012-03-15T17:47:44Z</time></trkpt><trkpt lat="41.623569" lon="2.019913"><ele>692.29</ele><time>2012-03-15T17:47:47Z</time></trkpt><trkpt lat="41.623466" lon="2.019883"><ele>687.96</ele><time>2012-03-15T17:47:54Z</time></trkpt><trkpt lat="41.623451" lon="2.019886"><ele>688.44</ele><time>2012-03-15T17:47:55Z</time></trkpt><trkpt lat="41.623360" lon="2.019876"><ele>684.60</ele><time>2012-03-15T17:48:00Z</time></trkpt><trkpt lat="41.623341" lon="2.019871"><ele>685.08</ele><time>2012-03-15T17:48:01Z</time></trkpt><trkpt lat="41.623215" lon="2.019846"><ele>680.75</ele><time>2012-03-15T17:48:07Z</time></trkpt><trkpt lat="41.623119" lon="2.019809"><ele>679.79</ele><time>2012-03-15T17:48:11Z</time></trkpt><trkpt lat="41.622952" lon="2.019715"><ele>676.91</ele><time>2012-03-15T17:48:18Z</time></trkpt><trkpt lat="41.622883" lon="2.019673"><ele>675.94</ele><time>2012-03-15T17:48:21Z</time></trkpt><trkpt lat="41.622658" lon="2.019495"><ele>671.62</ele><time>2012-03-15T17:48:32Z</time></trkpt><trkpt lat="41.622364" lon="2.019338"><ele>673.06</ele><time>2012-03-15T17:48:45Z</time></trkpt><trkpt lat="41.622303" lon="2.019310"><ele>673.06</ele><time>2012-03-15T17:48:48Z</time></trkpt><trkpt lat="41.622231" lon="2.019240"><ele>672.58</ele><time>2012-03-15T17:48:52Z</time></trkpt><trkpt lat="41.622185" lon="2.019215"><ele>674.50</ele><time>2012-03-15T17:48:55Z</time></trkpt><trkpt lat="41.621944" lon="2.019041"><ele>675.94</ele><time>2012-03-15T17:49:08Z</time></trkpt><trkpt lat="41.621674" lon="2.018889"><ele>677.87</ele><time>2012-03-15T17:49:21Z</time></trkpt><trkpt lat="41.621490" lon="2.018802"><ele>674.50</ele><time>2012-03-15T17:49:29Z</time></trkpt><trkpt lat="41.621239" lon="2.018846"><ele>671.14</ele><time>2012-03-15T17:49:41Z</time></trkpt><trkpt lat="41.621151" lon="2.018870"><ele>670.66</ele><time>2012-03-15T17:49:45Z</time></trkpt><trkpt lat="41.621021" lon="2.018930"><ele>666.33</ele><time>2012-03-15T17:49:52Z</time></trkpt><trkpt lat="41.620731" lon="2.019017"><ele>665.85</ele><time>2012-03-15T17:50:04Z</time></trkpt><trkpt lat="41.620609" lon="2.019007"><ele>665.37</ele><time>2012-03-15T17:50:09Z</time></trkpt><trkpt lat="41.620506" lon="2.019020"><ele>666.33</ele><time>2012-03-15T17:50:13Z</time></trkpt><trkpt lat="41.620182" lon="2.018976"><ele>662.97</ele><time>2012-03-15T17:50:25Z</time></trkpt><trkpt lat="41.620064" lon="2.019034"><ele>661.52</ele><time>2012-03-15T17:50:30Z</time></trkpt><trkpt lat="41.619987" lon="2.019135"><ele>657.20</ele><time>2012-03-15T17:50:36Z</time></trkpt><trkpt lat="41.619904" lon="2.019224"><ele>654.80</ele><time>2012-03-15T17:50:41Z</time></trkpt><trkpt lat="41.619888" lon="2.019238"><ele>655.28</ele><time>2012-03-15T17:50:42Z</time></trkpt><trkpt lat="41.619835" lon="2.019255"><ele>651.91</ele><time>2012-03-15T17:50:45Z</time></trkpt><trkpt lat="41.619797" lon="2.019270"><ele>651.91</ele><time>2012-03-15T17:50:47Z</time></trkpt><trkpt lat="41.619637" lon="2.019341"><ele>648.07</ele><time>2012-03-15T17:50:55Z</time></trkpt><trkpt lat="41.619514" lon="2.019356"><ele>646.14</ele><time>2012-03-15T17:51:01Z</time></trkpt><trkpt lat="41.619476" lon="2.019360"><ele>644.22</ele><time>2012-03-15T17:51:03Z</time></trkpt><trkpt lat="41.619392" lon="2.019368"><ele>642.30</ele><time>2012-03-15T17:51:07Z</time></trkpt><trkpt lat="41.619232" lon="2.019371"><ele>638.45</ele><time>2012-03-15T17:51:15Z</time></trkpt><trkpt lat="41.619099" lon="2.019422"><ele>636.05</ele><time>2012-03-15T17:51:21Z</time></trkpt><trkpt lat="41.618984" lon="2.019460"><ele>633.65</ele><time>2012-03-15T17:51:26Z</time></trkpt><trkpt lat="41.618931" lon="2.019464"><ele>630.28</ele><time>2012-03-15T17:51:29Z</time></trkpt><trkpt lat="41.618916" lon="2.019472"><ele>632.20</ele><time>2012-03-15T17:51:30Z</time></trkpt><trkpt lat="41.618797" lon="2.019567"><ele>628.36</ele><time>2012-03-15T17:51:36Z</time></trkpt><trkpt lat="41.618774" lon="2.019590"><ele>628.36</ele><time>2012-03-15T17:51:37Z</time></trkpt><trkpt lat="41.618561" lon="2.019698"><ele>624.03</ele><time>2012-03-15T17:51:46Z</time></trkpt><trkpt lat="41.618221" lon="2.019863"><ele>621.15</ele><time>2012-03-15T17:52:00Z</time></trkpt><trkpt lat="41.618126" lon="2.019914"><ele>621.63</ele><time>2012-03-15T17:52:04Z</time></trkpt><trkpt lat="41.617863" lon="2.020041"><ele>620.67</ele><time>2012-03-15T17:52:16Z</time></trkpt><trkpt lat="41.617733" lon="2.020081"><ele>617.30</ele><time>2012-03-15T17:52:21Z</time></trkpt><trkpt lat="41.617706" lon="2.020087"><ele>620.67</ele><time>2012-03-15T17:52:22Z</time></trkpt><trkpt lat="41.617558" lon="2.020152"><ele>618.75</ele><time>2012-03-15T17:52:28Z</time></trkpt><trkpt lat="41.617325" lon="2.020445"><ele>614.90</ele><time>2012-03-15T17:52:40Z</time></trkpt><trkpt lat="41.617306" lon="2.020467"><ele>614.90</ele><time>2012-03-15T17:52:41Z</time></trkpt><trkpt lat="41.617031" lon="2.020834"><ele>612.02</ele><time>2012-03-15T17:52:56Z</time></trkpt><trkpt lat="41.617016" lon="2.020862"><ele>611.54</ele><time>2012-03-15T17:52:57Z</time></trkpt><trkpt lat="41.616924" lon="2.021121"><ele>608.17</ele><time>2012-03-15T17:53:05Z</time></trkpt><trkpt lat="41.616776" lon="2.021471"><ele>606.73</ele><time>2012-03-15T17:53:17Z</time></trkpt><trkpt lat="41.616634" lon="2.021442"><ele>604.81</ele><time>2012-03-15T17:53:22Z</time></trkpt><trkpt lat="41.616371" lon="2.021050"><ele>600.48</ele><time>2012-03-15T17:53:34Z</time></trkpt><trkpt lat="41.616356" lon="2.021023"><ele>602.40</ele><time>2012-03-15T17:53:35Z</time></trkpt><trkpt lat="41.616249" lon="2.020876"><ele>599.04</ele><time>2012-03-15T17:53:41Z</time></trkpt><trkpt lat="41.616081" lon="2.020475"><ele>597.12</ele><time>2012-03-15T17:53:55Z</time></trkpt><trkpt lat="41.616028" lon="2.020330"><ele>593.27</ele><time>2012-03-15T17:54:00Z</time></trkpt><trkpt lat="41.615971" lon="2.020179"><ele>593.75</ele><time>2012-03-15T17:54:05Z</time></trkpt><trkpt lat="41.615952" lon="2.020147"><ele>592.31</ele><time>2012-03-15T17:54:07Z</time></trkpt><trkpt lat="41.615799" lon="2.020123"><ele>589.43</ele><time>2012-03-15T17:54:16Z</time></trkpt><trkpt lat="41.615532" lon="2.020164"><ele>585.58</ele><time>2012-03-15T17:54:28Z</time></trkpt><trkpt lat="41.615391" lon="2.020196"><ele>582.70</ele><time>2012-03-15T17:54:33Z</time></trkpt><trkpt lat="41.615116" lon="2.020298"><ele>579.81</ele><time>2012-03-15T17:54:43Z</time></trkpt><trkpt lat="41.614910" lon="2.020333"><ele>576.45</ele><time>2012-03-15T17:54:50Z</time></trkpt><trkpt lat="41.614876" lon="2.020331"><ele>576.93</ele><time>2012-03-15T17:54:51Z</time></trkpt><trkpt lat="41.614647" lon="2.020296"><ele>572.60</ele><time>2012-03-15T17:54:58Z</time></trkpt><trkpt lat="41.614552" lon="2.020241"><ele>573.08</ele><time>2012-03-15T17:55:02Z</time></trkpt><trkpt lat="41.614437" lon="2.020177"><ele>569.72</ele><time>2012-03-15T17:55:07Z</time></trkpt><trkpt lat="41.614204" lon="2.020172"><ele>566.35</ele><time>2012-03-15T17:55:17Z</time></trkpt><trkpt lat="41.614178" lon="2.020179"><ele>566.83</ele><time>2012-03-15T17:55:18Z</time></trkpt><trkpt lat="41.614071" lon="2.020183"><ele>564.91</ele><time>2012-03-15T17:55:22Z</time></trkpt><trkpt lat="41.613892" lon="2.020198"><ele>561.07</ele><time>2012-03-15T17:55:30Z</time></trkpt><trkpt lat="41.613701" lon="2.020143"><ele>559.14</ele><time>2012-03-15T17:55:38Z</time></trkpt><trkpt lat="41.613579" lon="2.020046"><ele>555.30</ele><time>2012-03-15T17:55:43Z</time></trkpt><trkpt lat="41.613560" lon="2.020028"><ele>555.30</ele><time>2012-03-15T17:55:44Z</time></trkpt><trkpt lat="41.613514" lon="2.019993"><ele>553.86</ele><time>2012-03-15T17:55:46Z</time></trkpt><trkpt lat="41.613338" lon="2.019849"><ele>549.53</ele><time>2012-03-15T17:55:56Z</time></trkpt><trkpt lat="41.613316" lon="2.019835"><ele>549.53</ele><time>2012-03-15T17:55:57Z</time></trkpt><trkpt lat="41.613201" lon="2.019771"><ele>547.61</ele><time>2012-03-15T17:56:02Z</time></trkpt><trkpt lat="41.613159" lon="2.019755"><ele>546.17</ele><time>2012-03-15T17:56:04Z</time></trkpt><trkpt lat="41.612946" lon="2.019619"><ele>544.24</ele><time>2012-03-15T17:56:14Z</time></trkpt><trkpt lat="41.612869" lon="2.019586"><ele>542.80</ele><time>2012-03-15T17:56:17Z</time></trkpt><trkpt lat="41.612759" lon="2.019564"><ele>539.44</ele><time>2012-03-15T17:56:21Z</time></trkpt><trkpt lat="41.612732" lon="2.019557"><ele>540.88</ele><time>2012-03-15T17:56:22Z</time></trkpt><trkpt lat="41.612587" lon="2.019549"><ele>537.51</ele><time>2012-03-15T17:56:27Z</time></trkpt><trkpt lat="41.612541" lon="2.019548"><ele>536.55</ele><time>2012-03-15T17:56:29Z</time></trkpt><trkpt lat="41.612480" lon="2.019579"><ele>533.19</ele><time>2012-03-15T17:56:33Z</time></trkpt><trkpt lat="41.612469" lon="2.019603"><ele>533.67</ele><time>2012-03-15T17:56:34Z</time></trkpt><trkpt lat="41.612328" lon="2.019590"><ele>529.34</ele><time>2012-03-15T17:56:44Z</time></trkpt><trkpt lat="41.612320" lon="2.019600"><ele>530.30</ele><time>2012-03-15T17:56:45Z</time></trkpt><trkpt lat="41.612278" lon="2.019617"><ele>527.90</ele><time>2012-03-15T17:56:52Z</time></trkpt><trkpt lat="41.612267" lon="2.019609"><ele>527.42</ele><time>2012-03-15T17:56:53Z</time></trkpt><trkpt lat="41.612175" lon="2.019607"><ele>528.38</ele><time>2012-03-15T17:56:59Z</time></trkpt><trkpt lat="41.612141" lon="2.019623"><ele>527.90</ele><time>2012-03-15T17:57:03Z</time></trkpt><trkpt lat="41.612144" lon="2.019664"><ele>529.34</ele><time>2012-03-15T17:57:10Z</time></trkpt><trkpt lat="41.612083" lon="2.019694"><ele>525.50</ele><time>2012-03-15T17:57:15Z</time></trkpt><trkpt lat="41.612072" lon="2.019710"><ele>526.94</ele><time>2012-03-15T17:57:16Z</time></trkpt><trkpt lat="41.612038" lon="2.019774"><ele>526.46</ele><time>2012-03-15T17:57:19Z</time></trkpt><trkpt lat="41.611984" lon="2.019916"><ele>524.54</ele><time>2012-03-15T17:57:24Z</time></trkpt><trkpt lat="41.611885" lon="2.020313"><ele>522.61</ele><time>2012-03-15T17:57:39Z</time></trkpt><trkpt lat="41.611832" lon="2.020701"><ele>521.65</ele><time>2012-03-15T17:57:54Z</time></trkpt><trkpt lat="41.611774" lon="2.020943"><ele>519.73</ele><time>2012-03-15T17:58:01Z</time></trkpt><trkpt lat="41.611687" lon="2.021161"><ele>517.81</ele><time>2012-03-15T17:58:09Z</time></trkpt><trkpt lat="41.611641" lon="2.021241"><ele>514.92</ele><time>2012-03-15T17:58:12Z</time></trkpt><trkpt lat="41.611408" lon="2.021413"><ele>511.08</ele><time>2012-03-15T17:58:21Z</time></trkpt><trkpt lat="41.611378" lon="2.021418"><ele>513.00</ele><time>2012-03-15T17:58:22Z</time></trkpt><trkpt lat="41.611065" lon="2.021546"><ele>508.19</ele><time>2012-03-15T17:58:35Z</time></trkpt><trkpt lat="41.610950" lon="2.021585"><ele>504.83</ele><time>2012-03-15T17:58:42Z</time></trkpt><trkpt lat="41.610939" lon="2.021597"><ele>504.83</ele><time>2012-03-15T17:58:43Z</time></trkpt><trkpt lat="41.610859" lon="2.021648"><ele>500.50</ele><time>2012-03-15T17:58:50Z</time></trkpt><trkpt lat="41.610760" lon="2.021695"><ele>497.62</ele><time>2012-03-15T17:58:57Z</time></trkpt><trkpt lat="41.610729" lon="2.021708"><ele>493.77</ele><time>2012-03-15T17:59:04Z</time></trkpt><trkpt lat="41.610722" lon="2.021721"><ele>496.18</ele><time>2012-03-15T17:59:05Z</time></trkpt><trkpt lat="41.610695" lon="2.021798"><ele>491.85</ele><time>2012-03-15T17:59:11Z</time></trkpt><trkpt lat="41.610683" lon="2.021817"><ele>492.33</ele><time>2012-03-15T17:59:12Z</time></trkpt><trkpt lat="41.610615" lon="2.021862"><ele>491.85</ele><time>2012-03-15T17:59:16Z</time></trkpt><trkpt lat="41.610306" lon="2.021841"><ele>490.41</ele><time>2012-03-15T17:59:29Z</time></trkpt><trkpt lat="41.610268" lon="2.021853"><ele>486.56</ele><time>2012-03-15T17:59:31Z</time></trkpt><trkpt lat="41.609951" lon="2.021925"><ele>484.64</ele><time>2012-03-15T17:59:46Z</time></trkpt><trkpt lat="41.609760" lon="2.021972"><ele>482.72</ele><time>2012-03-15T17:59:53Z</time></trkpt><trkpt lat="41.609684" lon="2.021970"><ele>484.16</ele><time>2012-03-15T17:59:55Z</time></trkpt><trkpt lat="41.609367" lon="2.021982"><ele>480.80</ele><time>2012-03-15T18:00:05Z</time></trkpt><trkpt lat="41.609077" lon="2.022038"><ele>478.39</ele><time>2012-03-15T18:00:18Z</time></trkpt><trkpt lat="41.608990" lon="2.022042"><ele>476.95</ele><time>2012-03-15T18:00:22Z</time></trkpt><trkpt lat="41.608677" lon="2.022110"><ele>475.51</ele><time>2012-03-15T18:00:33Z</time></trkpt><trkpt lat="41.608459" lon="2.022390"><ele>473.59</ele><time>2012-03-15T18:00:45Z</time></trkpt><trkpt lat="41.608200" lon="2.022646"><ele>470.70</ele><time>2012-03-15T18:00:58Z</time></trkpt><trkpt lat="41.608166" lon="2.022648"><ele>471.66</ele><time>2012-03-15T18:00:59Z</time></trkpt><trkpt lat="41.607815" lon="2.022452"><ele>471.66</ele><time>2012-03-15T18:01:13Z</time></trkpt><trkpt lat="41.607567" lon="2.022519"><ele>467.82</ele><time>2012-03-15T18:01:23Z</time></trkpt><trkpt lat="41.607254" lon="2.022802"><ele>466.38</ele><time>2012-03-15T18:01:37Z</time></trkpt><trkpt lat="41.607117" lon="2.022916"><ele>463.01</ele><time>2012-03-15T18:01:44Z</time></trkpt><trkpt lat="41.607101" lon="2.022930"><ele>463.01</ele><time>2012-03-15T18:01:45Z</time></trkpt><trkpt lat="41.606850" lon="2.023206"><ele>462.05</ele><time>2012-03-15T18:01:59Z</time></trkpt><trkpt lat="41.606564" lon="2.023076"><ele>461.57</ele><time>2012-03-15T18:02:11Z</time></trkpt><trkpt lat="41.606331" lon="2.022831"><ele>461.09</ele><time>2012-03-15T18:02:23Z</time></trkpt><trkpt lat="41.606091" lon="2.022622"><ele>461.09</ele><time>2012-03-15T18:02:35Z</time></trkpt><trkpt lat="41.605854" lon="2.022372"><ele>460.61</ele><time>2012-03-15T18:02:49Z</time></trkpt><trkpt lat="41.605606" lon="2.022160"><ele>459.65</ele><time>2012-03-15T18:03:01Z</time></trkpt><trkpt lat="41.605343" lon="2.021968"><ele>457.24</ele><time>2012-03-15T18:03:14Z</time></trkpt><trkpt lat="41.605312" lon="2.021981"><ele>457.24</ele><time>2012-03-15T18:03:16Z</time></trkpt><trkpt lat="41.605286" lon="2.022022"><ele>458.69</ele><time>2012-03-15T18:03:19Z</time></trkpt><trkpt lat="41.605198" lon="2.021942"><ele>458.69</ele><time>2012-03-15T18:03:25Z</time></trkpt><trkpt lat="41.604931" lon="2.021706"><ele>454.84</ele><time>2012-03-15T18:03:38Z</time></trkpt><trkpt lat="41.604919" lon="2.021681"><ele>455.80</ele><time>2012-03-15T18:03:39Z</time></trkpt><trkpt lat="41.604832" lon="2.021565"><ele>453.88</ele><time>2012-03-15T18:03:44Z</time></trkpt><trkpt lat="41.604767" lon="2.021438"><ele>451.96</ele><time>2012-03-15T18:03:49Z</time></trkpt><trkpt lat="41.604691" lon="2.021450"><ele>452.44</ele><time>2012-03-15T18:03:53Z</time></trkpt><trkpt lat="41.604431" lon="2.021695"><ele>451.48</ele><time>2012-03-15T18:04:08Z</time></trkpt><trkpt lat="41.604202" lon="2.022097"><ele>450.52</ele><time>2012-03-15T18:04:20Z</time></trkpt><trkpt lat="41.604042" lon="2.022197"><ele>448.59</ele><time>2012-03-15T18:04:29Z</time></trkpt><trkpt lat="41.603794" lon="2.022479"><ele>449.07</ele><time>2012-03-15T18:04:41Z</time></trkpt><trkpt lat="41.603592" lon="2.022656"><ele>446.19</ele><time>2012-03-15T18:04:50Z</time></trkpt><trkpt lat="41.603310" lon="2.022863"><ele>446.19</ele><time>2012-03-15T18:05:02Z</time></trkpt><trkpt lat="41.603008" lon="2.023010"><ele>446.19</ele><time>2012-03-15T18:05:15Z</time></trkpt><trkpt lat="41.602760" lon="2.023168"><ele>447.15</ele><time>2012-03-15T18:05:28Z</time></trkpt><trkpt lat="41.602669" lon="2.023215"><ele>443.79</ele><time>2012-03-15T18:05:33Z</time></trkpt><trkpt lat="41.602650" lon="2.023228"><ele>447.15</ele><time>2012-03-15T18:05:34Z</time></trkpt><trkpt lat="41.602406" lon="2.023380"><ele>443.79</ele><time>2012-03-15T18:05:44Z</time></trkpt><trkpt lat="41.602150" lon="2.023481"><ele>442.82</ele><time>2012-03-15T18:05:54Z</time></trkpt><trkpt lat="41.601795" lon="2.023558"><ele>441.86</ele><time>2012-03-15T18:06:10Z</time></trkpt><trkpt lat="41.601505" lon="2.023616"><ele>439.46</ele><time>2012-03-15T18:06:22Z</time></trkpt><trkpt lat="41.601482" lon="2.023616"><ele>440.90</ele><time>2012-03-15T18:06:23Z</time></trkpt><trkpt lat="41.601425" lon="2.023644"><ele>439.46</ele><time>2012-03-15T18:06:26Z</time></trkpt><trkpt lat="41.601093" lon="2.023936"><ele>438.98</ele><time>2012-03-15T18:06:40Z</time></trkpt><trkpt lat="41.600777" lon="2.024155"><ele>437.54</ele><time>2012-03-15T18:06:53Z</time></trkpt><trkpt lat="41.600548" lon="2.024267"><ele>434.17</ele><time>2012-03-15T18:07:03Z</time></trkpt><trkpt lat="41.600239" lon="2.024403"><ele>435.13</ele><time>2012-03-15T18:07:16Z</time></trkpt><trkpt lat="41.599903" lon="2.024499"><ele>433.69</ele><time>2012-03-15T18:07:30Z</time></trkpt><trkpt lat="41.599545" lon="2.024607"><ele>431.77</ele><time>2012-03-15T18:07:43Z</time></trkpt><trkpt lat="41.599205" lon="2.024661"><ele>431.77</ele><time>2012-03-15T18:07:56Z</time></trkpt><trkpt lat="41.599163" lon="2.024657"><ele>430.33</ele><time>2012-03-15T18:07:58Z</time></trkpt><trkpt lat="41.598919" lon="2.024694"><ele>430.33</ele><time>2012-03-15T18:08:09Z</time></trkpt><trkpt lat="41.598576" lon="2.024743"><ele>427.92</ele><time>2012-03-15T18:08:24Z</time></trkpt><trkpt lat="41.598236" lon="2.024702"><ele>427.92</ele><time>2012-03-15T18:08:37Z</time></trkpt><trkpt lat="41.597923" lon="2.024691"><ele>424.56</ele><time>2012-03-15T18:08:49Z</time></trkpt><trkpt lat="41.597870" lon="2.024695"><ele>426.48</ele><time>2012-03-15T18:08:51Z</time></trkpt><trkpt lat="41.597549" lon="2.024654"><ele>425.04</ele><time>2012-03-15T18:09:04Z</time></trkpt><trkpt lat="41.597221" lon="2.024593"><ele>424.08</ele><time>2012-03-15T18:09:16Z</time></trkpt><trkpt lat="41.596893" lon="2.024494"><ele>422.64</ele><time>2012-03-15T18:09:30Z</time></trkpt><trkpt lat="41.596531" lon="2.024369"><ele>421.19</ele><time>2012-03-15T18:09:43Z</time></trkpt><trkpt lat="41.596130" lon="2.024215"><ele>419.27</ele><time>2012-03-15T18:09:58Z</time></trkpt><trkpt lat="41.595783" lon="2.024039"><ele>417.35</ele><time>2012-03-15T18:10:11Z</time></trkpt><trkpt lat="41.595463" lon="2.023834"><ele>416.87</ele><time>2012-03-15T18:10:25Z</time></trkpt><trkpt lat="41.595131" lon="2.023670"><ele>415.43</ele><time>2012-03-15T18:10:38Z</time></trkpt><trkpt lat="41.594868" lon="2.023533"><ele>412.54</ele><time>2012-03-15T18:10:49Z</time></trkpt><trkpt lat="41.594769" lon="2.023486"><ele>413.02</ele><time>2012-03-15T18:10:53Z</time></trkpt><trkpt lat="41.594368" lon="2.023348"><ele>411.58</ele><time>2012-03-15T18:11:07Z</time></trkpt><trkpt lat="41.594028" lon="2.023204"><ele>410.62</ele><time>2012-03-15T18:11:20Z</time></trkpt><trkpt lat="41.593723" lon="2.023082"><ele>409.18</ele><time>2012-03-15T18:11:32Z</time></trkpt><trkpt lat="41.593468" lon="2.023017"><ele>407.74</ele><time>2012-03-15T18:11:42Z</time></trkpt><trkpt lat="41.593147" lon="2.022922"><ele>405.33</ele><time>2012-03-15T18:11:55Z</time></trkpt><trkpt lat="41.592896" lon="2.022944"><ele>407.26</ele><time>2012-03-15T18:12:06Z</time></trkpt><trkpt lat="41.592800" lon="2.023024"><ele>410.62</ele><time>2012-03-15T18:12:12Z</time></trkpt><trkpt lat="41.592789" lon="2.023031"><ele>410.14</ele><time>2012-03-15T18:12:13Z</time></trkpt><trkpt lat="41.592728" lon="2.023038"><ele>407.26</ele><time>2012-03-15T18:12:17Z</time></trkpt><trkpt lat="41.592697" lon="2.023025"><ele>408.22</ele><time>2012-03-15T18:12:19Z</time></trkpt><trkpt lat="41.592659" lon="2.022983"><ele>409.66</ele><time>2012-03-15T18:12:22Z</time></trkpt><trkpt lat="41.592533" lon="2.022746"><ele>408.70</ele><time>2012-03-15T18:12:36Z</time></trkpt><trkpt lat="41.592506" lon="2.022689"><ele>408.70</ele><time>2012-03-15T18:12:39Z</time></trkpt><trkpt lat="41.592365" lon="2.022313"><ele>407.26</ele><time>2012-03-15T18:12:53Z</time></trkpt><trkpt lat="41.592197" lon="2.022079"><ele>406.29</ele><time>2012-03-15T18:13:04Z</time></trkpt><trkpt lat="41.591988" lon="2.021648"><ele>405.81</ele><time>2012-03-15T18:13:19Z</time></trkpt><trkpt lat="41.591782" lon="2.021253"><ele>403.89</ele><time>2012-03-15T18:13:34Z</time></trkpt><trkpt lat="41.591614" lon="2.021026"><ele>403.89</ele><time>2012-03-15T18:13:47Z</time></trkpt><trkpt lat="41.591385" lon="2.020700"><ele>401.97</ele><time>2012-03-15T18:13:59Z</time></trkpt><trkpt lat="41.591141" lon="2.020373"><ele>401.01</ele><time>2012-03-15T18:14:11Z</time></trkpt><trkpt lat="41.591106" lon="2.020314"><ele>402.45</ele><time>2012-03-15T18:14:13Z</time></trkpt><trkpt lat="41.590893" lon="2.019967"><ele>401.49</ele><time>2012-03-15T18:14:26Z</time></trkpt><trkpt lat="41.590698" lon="2.019696"><ele>398.60</ele><time>2012-03-15T18:14:38Z</time></trkpt><trkpt lat="41.590466" lon="2.019426"><ele>398.12</ele><time>2012-03-15T18:14:51Z</time></trkpt><trkpt lat="41.590153" lon="2.019302"><ele>398.12</ele><time>2012-03-15T18:15:04Z</time></trkpt><trkpt lat="41.589848" lon="2.019283"><ele>394.76</ele><time>2012-03-15T18:15:16Z</time></trkpt><trkpt lat="41.589542" lon="2.019282"><ele>394.28</ele><time>2012-03-15T18:15:27Z</time></trkpt><trkpt lat="41.589230" lon="2.019232"><ele>393.32</ele><time>2012-03-15T18:15:39Z</time></trkpt><trkpt lat="41.588974" lon="2.019177"><ele>389.95</ele><time>2012-03-15T18:15:50Z</time></trkpt><trkpt lat="41.588951" lon="2.019172"><ele>390.43</ele><time>2012-03-15T18:15:51Z</time></trkpt><trkpt lat="41.588692" lon="2.019101"><ele>389.95</ele><time>2012-03-15T18:16:03Z</time></trkpt><trkpt lat="41.588402" lon="2.019065"><ele>387.55</ele><time>2012-03-15T18:16:16Z</time></trkpt><trkpt lat="41.588097" lon="2.019034"><ele>387.55</ele><time>2012-03-15T18:16:28Z</time></trkpt><trkpt lat="41.587757" lon="2.018955"><ele>387.07</ele><time>2012-03-15T18:16:41Z</time></trkpt><trkpt lat="41.587376" lon="2.018933"><ele>386.11</ele><time>2012-03-15T18:16:54Z</time></trkpt><trkpt lat="41.587250" lon="2.018941"><ele>384.66</ele><time>2012-03-15T18:16:58Z</time></trkpt><trkpt lat="41.586926" lon="2.018876"><ele>383.70</ele><time>2012-03-15T18:17:10Z</time></trkpt><trkpt lat="41.586567" lon="2.018815"><ele>383.22</ele><time>2012-03-15T18:17:23Z</time></trkpt><trkpt lat="41.586536" lon="2.018811"><ele>383.70</ele><time>2012-03-15T18:17:24Z</time></trkpt><trkpt lat="41.586388" lon="2.018789"><ele>381.78</ele><time>2012-03-15T18:17:30Z</time></trkpt><trkpt lat="41.586227" lon="2.018749"><ele>381.30</ele><time>2012-03-15T18:17:36Z</time></trkpt><trkpt lat="41.585953" lon="2.018731"><ele>381.78</ele><time>2012-03-15T18:17:47Z</time></trkpt><trkpt lat="41.585579" lon="2.018678"><ele>378.42</ele><time>2012-03-15T18:18:01Z</time></trkpt><trkpt lat="41.585285" lon="2.018662"><ele>377.94</ele><time>2012-03-15T18:18:13Z</time></trkpt><trkpt lat="41.585258" lon="2.018660"><ele>377.94</ele><time>2012-03-15T18:18:14Z</time></trkpt><trkpt lat="41.584949" lon="2.018608"><ele>377.45</ele><time>2012-03-15T18:18:27Z</time></trkpt><trkpt lat="41.584816" lon="2.018613"><ele>378.42</ele><time>2012-03-15T18:18:38Z</time></trkpt><trkpt lat="41.584820" lon="2.018612"><ele>377.94</ele><time>2012-03-15T18:18:51Z</time></trkpt><trkpt lat="41.584682" lon="2.018356"><ele>376.01</ele><time>2012-03-15T18:19:03Z</time></trkpt><trkpt lat="41.584404" lon="2.018318"><ele>375.53</ele><time>2012-03-15T18:19:14Z</time></trkpt><trkpt lat="41.584187" lon="2.018228"><ele>373.13</ele><time>2012-03-15T18:19:23Z</time></trkpt><trkpt lat="41.584160" lon="2.018168"><ele>374.57</ele><time>2012-03-15T18:19:25Z</time></trkpt><trkpt lat="41.584011" lon="2.017707"><ele>373.13</ele><time>2012-03-15T18:19:39Z</time></trkpt><trkpt lat="41.584045" lon="2.017216"><ele>373.13</ele><time>2012-03-15T18:19:53Z</time></trkpt><trkpt lat="41.584023" lon="2.016897"><ele>372.65</ele><time>2012-03-15T18:20:02Z</time></trkpt><trkpt lat="41.583984" lon="2.016477"><ele>370.73</ele><time>2012-03-15T18:20:14Z</time></trkpt><trkpt lat="41.583992" lon="2.016123"><ele>371.21</ele><time>2012-03-15T18:20:27Z</time></trkpt><trkpt lat="41.583977" lon="2.015547"><ele>369.76</ele><time>2012-03-15T18:20:41Z</time></trkpt><trkpt lat="41.583961" lon="2.015077"><ele>370.24</ele><time>2012-03-15T18:20:55Z</time></trkpt><trkpt lat="41.583935" lon="2.014633"><ele>368.80</ele><time>2012-03-15T18:21:06Z</time></trkpt><trkpt lat="41.583912" lon="2.014170"><ele>366.40</ele><time>2012-03-15T18:21:19Z</time></trkpt><trkpt lat="41.583908" lon="2.013987"><ele>367.36</ele><time>2012-03-15T18:21:25Z</time></trkpt><trkpt lat="41.583889" lon="2.013490"><ele>366.40</ele><time>2012-03-15T18:21:41Z</time></trkpt><trkpt lat="41.583858" lon="2.013087"><ele>365.92</ele><time>2012-03-15T18:21:54Z</time></trkpt><trkpt lat="41.583866" lon="2.012744"><ele>365.44</ele><time>2012-03-15T18:22:07Z</time></trkpt><trkpt lat="41.583870" lon="2.012408"><ele>365.44</ele><time>2012-03-15T18:22:18Z</time></trkpt><trkpt lat="41.583687" lon="2.012040"><ele>362.07</ele><time>2012-03-15T18:22:30Z</time></trkpt><trkpt lat="41.583439" lon="2.011690"><ele>363.04</ele><time>2012-03-15T18:22:43Z</time></trkpt><trkpt lat="41.583134" lon="2.011716"><ele>362.07</ele><time>2012-03-15T18:22:55Z</time></trkpt><trkpt lat="41.582920" lon="2.011640"><ele>360.63</ele><time>2012-03-15T18:23:07Z</time></trkpt><trkpt lat="41.582890" lon="2.011187"><ele>360.63</ele><time>2012-03-15T18:23:21Z</time></trkpt><trkpt lat="41.582836" lon="2.010762"><ele>360.15</ele><time>2012-03-15T18:23:36Z</time></trkpt><trkpt lat="41.582558" lon="2.010528"><ele>358.71</ele><time>2012-03-15T18:23:48Z</time></trkpt><trkpt lat="41.582275" lon="2.010266"><ele>357.27</ele><time>2012-03-15T18:24:01Z</time></trkpt><trkpt lat="41.581955" lon="2.010010"><ele>355.83</ele><time>2012-03-15T18:24:14Z</time></trkpt><trkpt lat="41.581703" lon="2.009794"><ele>354.86</ele><time>2012-03-15T18:24:26Z</time></trkpt><trkpt lat="41.581409" lon="2.009799"><ele>351.98</ele><time>2012-03-15T18:24:38Z</time></trkpt><trkpt lat="41.581112" lon="2.009787"><ele>352.46</ele><time>2012-03-15T18:24:49Z</time></trkpt><trkpt lat="41.580879" lon="2.009801"><ele>352.46</ele><time>2012-03-15T18:24:58Z</time></trkpt><trkpt lat="41.580814" lon="2.009813"><ele>349.58</ele><time>2012-03-15T18:25:01Z</time></trkpt><trkpt lat="41.580791" lon="2.009820"><ele>352.46</ele><time>2012-03-15T18:25:02Z</time></trkpt><trkpt lat="41.580517" lon="2.009876"><ele>351.02</ele><time>2012-03-15T18:25:14Z</time></trkpt><trkpt lat="41.580139" lon="2.009861"><ele>350.06</ele><time>2012-03-15T18:25:27Z</time></trkpt><trkpt lat="41.579842" lon="2.009851"><ele>349.10</ele><time>2012-03-15T18:25:42Z</time></trkpt><trkpt lat="41.579819" lon="2.009846"><ele>348.62</ele><time>2012-03-15T18:25:44Z</time></trkpt><trkpt lat="41.579540" lon="2.009859"><ele>347.65</ele><time>2012-03-15T18:25:57Z</time></trkpt><trkpt lat="41.579266" lon="2.009872"><ele>346.69</ele><time>2012-03-15T18:26:10Z</time></trkpt></trkseg><trkseg><trkpt lat="41.562004" lon="1.993730"><ele>275.56</ele><time>2012-03-15T20:44:53Z</time></trkpt><trkpt lat="41.562004" lon="1.993743"><ele>274.59</ele><time>2012-03-15T20:44:54Z</time></trkpt><trkpt lat="41.561977" lon="1.993805"><ele>276.04</ele><time>2012-03-15T20:45:18Z</time></trkpt><trkpt lat="41.562050" lon="1.993824"><ele>276.52</ele><time>2012-03-15T20:45:30Z</time></trkpt><trkpt lat="41.562031" lon="1.993886"><ele>277.00</ele><time>2012-03-15T20:45:51Z</time></trkpt><trkpt lat="41.562031" lon="1.993872"><ele>275.56</ele><time>2012-03-15T20:46:26Z</time></trkpt><trkpt lat="41.562035" lon="1.993865"><ele>276.52</ele><time>2012-03-15T20:47:04Z</time></trkpt><trkpt lat="41.562008" lon="1.993828"><ele>276.04</ele><time>2012-03-15T20:47:38Z</time></trkpt><trkpt lat="41.561993" lon="1.993870"><ele>276.52</ele><time>2012-03-15T20:48:12Z</time></trkpt><trkpt lat="41.562019" lon="1.993829"><ele>276.52</ele><time>2012-03-15T20:48:18Z</time></trkpt><trkpt lat="41.562054" lon="1.993846"><ele>277.00</ele><time>2012-03-15T20:48:32Z</time></trkpt><trkpt lat="41.562096" lon="1.993846"><ele>275.56</ele><time>2012-03-15T20:48:37Z</time></trkpt><trkpt lat="41.562111" lon="1.993839"><ele>276.52</ele><time>2012-03-15T20:48:39Z</time></trkpt><trkpt lat="41.562183" lon="1.993805"><ele>274.59</ele><time>2012-03-15T20:48:51Z</time></trkpt><trkpt lat="41.562180" lon="1.993806"><ele>276.52</ele><time>2012-03-15T20:48:52Z</time></trkpt><trkpt lat="41.562157" lon="1.993805"><ele>276.52</ele><time>2012-03-15T20:48:59Z</time></trkpt><trkpt lat="41.562141" lon="1.993822"><ele>277.00</ele><time>2012-03-15T20:49:03Z</time></trkpt><trkpt lat="41.562061" lon="1.993870"><ele>276.04</ele><time>2012-03-15T20:49:31Z</time></trkpt><trkpt lat="41.562111" lon="1.993851"><ele>276.52</ele><time>2012-03-15T20:50:04Z</time></trkpt><trkpt lat="41.562141" lon="1.993842"><ele>276.52</ele><time>2012-03-15T20:50:27Z</time></trkpt><trkpt lat="41.562191" lon="1.993833"><ele>276.52</ele><time>2012-03-15T20:50:59Z</time></trkpt><trkpt lat="41.562244" lon="1.993788"><ele>277.00</ele><time>2012-03-15T20:51:28Z</time></trkpt><trkpt lat="41.562279" lon="1.993757"><ele>277.00</ele><time>2012-03-15T20:51:50Z</time></trkpt><trkpt lat="41.562359" lon="1.993741"><ele>277.96</ele><time>2012-03-15T20:52:01Z</time></trkpt><trkpt lat="41.562374" lon="1.993810"><ele>275.07</ele><time>2012-03-15T20:52:26Z</time></trkpt><trkpt lat="41.562271" lon="1.993808"><ele>276.52</ele><time>2012-03-15T20:52:46Z</time></trkpt><trkpt lat="41.562206" lon="1.993745"><ele>277.00</ele><time>2012-03-15T20:53:14Z</time></trkpt><trkpt lat="41.562206" lon="1.993749"><ele>276.52</ele><time>2012-03-15T20:53:17Z</time></trkpt></trkseg><trkseg><trkpt lat="41.561878" lon="1.993858"><ele>276.52</ele><time>2012-03-15T20:58:20Z</time></trkpt><trkpt lat="41.561874" lon="1.993831"><ele>277.48</ele><time>2012-03-15T20:58:50Z</time></trkpt><trkpt lat="41.561901" lon="1.993774"><ele>277.00</ele><time>2012-03-15T20:59:15Z</time></trkpt><trkpt lat="41.561909" lon="1.993832"><ele>277.00</ele><time>2012-03-15T20:59:43Z</time></trkpt><trkpt lat="41.561970" lon="1.993820"><ele>277.00</ele><time>2012-03-15T21:00:11Z</time></trkpt><trkpt lat="41.561954" lon="1.993818"><ele>277.00</ele><time>2012-03-15T21:00:38Z</time></trkpt><trkpt lat="41.561954" lon="1.993818"><ele>277.00</ele><time>2012-03-15T21:01:09Z</time></trkpt><trkpt lat="41.561962" lon="1.993821"><ele>277.00</ele><time>2012-03-15T21:01:39Z</time></trkpt><trkpt lat="41.561977" lon="1.993827"><ele>277.00</ele><time>2012-03-15T21:02:11Z</time></trkpt><trkpt lat="41.562042" lon="1.993836"><ele>277.00</ele><time>2012-03-15T21:02:47Z</time></trkpt><trkpt lat="41.562042" lon="1.993832"><ele>276.04</ele><time>2012-03-15T21:03:19Z</time></trkpt><trkpt lat="41.562042" lon="1.993831"><ele>271.71</ele><time>2012-03-15T21:03:20Z</time></trkpt><trkpt lat="41.562042" lon="1.993831"><ele>275.07</ele><time>2012-03-15T21:03:21Z</time></trkpt><trkpt lat="41.562042" lon="1.993831"><ele>277.00</ele><time>2012-03-15T21:03:22Z</time></trkpt></trkseg></trk></gpx>